<?xml version="1.0" encoding="UTF-8" standalone="no" ?>
<gpx xmlns="http://www.topografix.com/GPX/1/1" creator="MapSource 6.15.6" version="1.1" xmlns:xsi="http://www.w3.org/2001/XMLSchema-instance" xsi:schemaLocation="http://www.topografix.com/GPX/1/1 http://www.topografix.com/GPX/1/1/gpx.xsd">

  <metadata>
    <link href="http://www.garmin.com">
      <text>Garmin International</text>
    </link>
    <time>2009-07-20T06:33:44Z</time>
    <bounds maxlat="45.5648770" maxlon="8.8546390" minlat="45.5517200" minlon="8.8292270"/>
  </metadata>

  <trk>
    <name>2009-07-19T07_5</name>
    <extensions>
      <gpxx:TrackExtension xmlns:gpxx="http://www.garmin.com/xmlschemas/GpxExtensions/v3">
        <gpxx:DisplayColor>White</gpxx:DisplayColor>
      </gpxx:TrackExtension>
    </extensions>
    <trkseg>
      <trkpt lat="45.5532090" lon="8.8545290">
        <ele>189.5960000</ele>
        <time>2009-07-19T07:58:37Z</time>
      </trkpt>
      <trkpt lat="45.5532620" lon="8.8545020">
        <ele>189.5940000</ele>
        <time>2009-07-19T07:58:38Z</time>
      </trkpt>
      <trkpt lat="45.5534190" lon="8.8543780">
        <ele>190.4090000</ele>
        <time>2009-07-19T07:58:41Z</time>
      </trkpt>
      <trkpt lat="45.5533800" lon="8.8540800">
        <ele>190.6110000</ele>
        <time>2009-07-19T07:58:44Z</time>
      </trkpt>
      <trkpt lat="45.5533130" lon="8.8533430">
        <ele>190.5020000</ele>
        <time>2009-07-19T07:58:52Z</time>
      </trkpt>
      <trkpt lat="45.5532330" lon="8.8525620">
        <ele>190.3560000</ele>
        <time>2009-07-19T07:59:00Z</time>
      </trkpt>
      <trkpt lat="45.5531580" lon="8.8516740">
        <ele>190.4550000</ele>
        <time>2009-07-19T07:59:09Z</time>
      </trkpt>
      <trkpt lat="45.5530970" lon="8.8511000">
        <ele>190.4490000</ele>
        <time>2009-07-19T07:59:15Z</time>
      </trkpt>
      <trkpt lat="45.5529390" lon="8.8505690">
        <ele>190.3270000</ele>
        <time>2009-07-19T07:59:21Z</time>
      </trkpt>
      <trkpt lat="45.5529580" lon="8.8502750">
        <ele>190.0960000</ele>
        <time>2009-07-19T07:59:25Z</time>
      </trkpt>
      <trkpt lat="45.5531510" lon="8.8500720">
        <ele>189.6660000</ele>
        <time>2009-07-19T07:59:29Z</time>
      </trkpt>
      <trkpt lat="45.5533050" lon="8.8499630">
        <ele>189.5560000</ele>
        <time>2009-07-19T07:59:32Z</time>
      </trkpt>
      <trkpt lat="45.5533600" lon="8.8497370">
        <ele>189.8560000</ele>
        <time>2009-07-19T07:59:36Z</time>
      </trkpt>
      <trkpt lat="45.5532940" lon="8.8495390">
        <ele>189.7330000</ele>
        <time>2009-07-19T07:59:39Z</time>
      </trkpt>
      <trkpt lat="45.5533080" lon="8.8493470">
        <ele>190.3990000</ele>
        <time>2009-07-19T07:59:42Z</time>
      </trkpt>
      <trkpt lat="45.5533490" lon="8.8493090">
        <ele>189.9760000</ele>
        <time>2009-07-19T07:59:43Z</time>
      </trkpt>
      <trkpt lat="45.5536940" lon="8.8490510">
        <ele>190.1260000</ele>
        <time>2009-07-19T07:59:51Z</time>
      </trkpt>
      <trkpt lat="45.5540710" lon="8.8487460">
        <ele>189.7260000</ele>
        <time>2009-07-19T08:00:00Z</time>
      </trkpt>
      <trkpt lat="45.5542830" lon="8.8485570">
        <ele>189.8880000</ele>
        <time>2009-07-19T08:00:06Z</time>
      </trkpt>
      <trkpt lat="45.5544460" lon="8.8482370">
        <ele>189.9200000</ele>
        <time>2009-07-19T08:00:12Z</time>
      </trkpt>
      <trkpt lat="45.5545450" lon="8.8479990">
        <ele>189.8790000</ele>
        <time>2009-07-19T08:00:16Z</time>
      </trkpt>
      <trkpt lat="45.5546470" lon="8.8478290">
        <ele>190.3400000</ele>
        <time>2009-07-19T08:00:20Z</time>
      </trkpt>
      <trkpt lat="45.5547160" lon="8.8478580">
        <ele>190.1080000</ele>
        <time>2009-07-19T08:00:22Z</time>
      </trkpt>
      <trkpt lat="45.5548660" lon="8.8479050">
        <ele>190.5230000</ele>
        <time>2009-07-19T08:00:27Z</time>
      </trkpt>
      <trkpt lat="45.5549450" lon="8.8478350">
        <ele>190.3650000</ele>
        <time>2009-07-19T08:00:31Z</time>
      </trkpt>
      <trkpt lat="45.5549760" lon="8.8478260">
        <ele>190.2460000</ele>
        <time>2009-07-19T08:00:32Z</time>
      </trkpt>
      <trkpt lat="45.5550510" lon="8.8478050">
        <ele>191.3490000</ele>
        <time>2009-07-19T08:00:36Z</time>
      </trkpt>
      <trkpt lat="45.5551040" lon="8.8477570">
        <ele>191.3770000</ele>
        <time>2009-07-19T08:00:41Z</time>
      </trkpt>
      <trkpt lat="45.5551330" lon="8.8476620">
        <ele>190.8760000</ele>
        <time>2009-07-19T08:00:46Z</time>
      </trkpt>
      <trkpt lat="45.5551900" lon="8.8475990">
        <ele>190.9500000</ele>
        <time>2009-07-19T08:00:49Z</time>
      </trkpt>
      <trkpt lat="45.5552330" lon="8.8476030">
        <ele>191.4750000</ele>
        <time>2009-07-19T08:00:53Z</time>
      </trkpt>
      <trkpt lat="45.5553140" lon="8.8474960">
        <ele>191.0550000</ele>
        <time>2009-07-19T08:00:58Z</time>
      </trkpt>
      <trkpt lat="45.5552850" lon="8.8473170">
        <ele>190.5060000</ele>
        <time>2009-07-19T08:01:02Z</time>
      </trkpt>
      <trkpt lat="45.5553330" lon="8.8471990">
        <ele>190.5940000</ele>
        <time>2009-07-19T08:01:05Z</time>
      </trkpt>
      <trkpt lat="45.5553620" lon="8.8471730">
        <ele>190.6160000</ele>
        <time>2009-07-19T08:01:06Z</time>
      </trkpt>
      <trkpt lat="45.5555310" lon="8.8470440">
        <ele>190.9140000</ele>
        <time>2009-07-19T08:01:11Z</time>
      </trkpt>
      <trkpt lat="45.5555850" lon="8.8469850">
        <ele>191.1000000</ele>
        <time>2009-07-19T08:01:13Z</time>
      </trkpt>
      <trkpt lat="45.5556880" lon="8.8469200">
        <ele>191.1600000</ele>
        <time>2009-07-19T08:01:17Z</time>
      </trkpt>
      <trkpt lat="45.5558260" lon="8.8468410">
        <ele>191.2140000</ele>
        <time>2009-07-19T08:01:22Z</time>
      </trkpt>
      <trkpt lat="45.5558860" lon="8.8468420">
        <ele>191.1620000</ele>
        <time>2009-07-19T08:01:24Z</time>
      </trkpt>
      <trkpt lat="45.5559390" lon="8.8469820">
        <ele>191.1360000</ele>
        <time>2009-07-19T08:01:29Z</time>
      </trkpt>
      <trkpt lat="45.5560090" lon="8.8470270">
        <ele>191.1710000</ele>
        <time>2009-07-19T08:01:32Z</time>
      </trkpt>
      <trkpt lat="45.5561250" lon="8.8470180">
        <ele>191.1030000</ele>
        <time>2009-07-19T08:01:36Z</time>
      </trkpt>
      <trkpt lat="45.5562440" lon="8.8469650">
        <ele>191.3630000</ele>
        <time>2009-07-19T08:01:40Z</time>
      </trkpt>
      <trkpt lat="45.5563020" lon="8.8469550">
        <ele>192.2650000</ele>
        <time>2009-07-19T08:01:43Z</time>
      </trkpt>
      <trkpt lat="45.5563340" lon="8.8469750">
        <ele>192.1020000</ele>
        <time>2009-07-19T08:01:45Z</time>
      </trkpt>
      <trkpt lat="45.5563800" lon="8.8470690">
        <ele>191.0150000</ele>
        <time>2009-07-19T08:01:47Z</time>
      </trkpt>
      <trkpt lat="45.5565090" lon="8.8473850">
        <ele>191.0750000</ele>
        <time>2009-07-19T08:01:52Z</time>
      </trkpt>
      <trkpt lat="45.5566350" lon="8.8476520">
        <ele>191.2160000</ele>
        <time>2009-07-19T08:01:56Z</time>
      </trkpt>
      <trkpt lat="45.5567420" lon="8.8477070">
        <ele>191.2230000</ele>
        <time>2009-07-19T08:01:59Z</time>
      </trkpt>
      <trkpt lat="45.5567790" lon="8.8476710">
        <ele>191.1010000</ele>
        <time>2009-07-19T08:02:00Z</time>
      </trkpt>
      <trkpt lat="45.5568950" lon="8.8475500">
        <ele>191.0670000</ele>
        <time>2009-07-19T08:02:03Z</time>
      </trkpt>
      <trkpt lat="45.5573340" lon="8.8471560">
        <ele>191.3200000</ele>
        <time>2009-07-19T08:02:13Z</time>
      </trkpt>
      <trkpt lat="45.5577370" lon="8.8467990">
        <ele>191.9460000</ele>
        <time>2009-07-19T08:02:22Z</time>
      </trkpt>
      <trkpt lat="45.5580620" lon="8.8465200">
        <ele>191.4820000</ele>
        <time>2009-07-19T08:02:29Z</time>
      </trkpt>
      <trkpt lat="45.5584940" lon="8.8461750">
        <ele>192.0280000</ele>
        <time>2009-07-19T08:02:38Z</time>
      </trkpt>
      <trkpt lat="45.5589130" lon="8.8459360">
        <ele>192.0360000</ele>
        <time>2009-07-19T08:02:46Z</time>
      </trkpt>
      <trkpt lat="45.5593830" lon="8.8456620">
        <ele>192.3310000</ele>
        <time>2009-07-19T08:02:55Z</time>
      </trkpt>
      <trkpt lat="45.5598360" lon="8.8454020">
        <ele>192.2430000</ele>
        <time>2009-07-19T08:03:04Z</time>
      </trkpt>
      <trkpt lat="45.5600250" lon="8.8454620">
        <ele>192.3770000</ele>
        <time>2009-07-19T08:03:08Z</time>
      </trkpt>
      <trkpt lat="45.5600620" lon="8.8455140">
        <ele>192.3170000</ele>
        <time>2009-07-19T08:03:09Z</time>
      </trkpt>
      <trkpt lat="45.5602650" lon="8.8456620">
        <ele>192.4600000</ele>
        <time>2009-07-19T08:03:14Z</time>
      </trkpt>
      <trkpt lat="45.5603490" lon="8.8455720">
        <ele>192.3390000</ele>
        <time>2009-07-19T08:03:16Z</time>
      </trkpt>
      <trkpt lat="45.5604310" lon="8.8454650">
        <ele>192.4530000</ele>
        <time>2009-07-19T08:03:18Z</time>
      </trkpt>
      <trkpt lat="45.5605150" lon="8.8452200">
        <ele>192.4030000</ele>
        <time>2009-07-19T08:03:22Z</time>
      </trkpt>
      <trkpt lat="45.5606040" lon="8.8448540">
        <ele>192.5780000</ele>
        <time>2009-07-19T08:03:27Z</time>
      </trkpt>
      <trkpt lat="45.5607590" lon="8.8447960">
        <ele>192.6460000</ele>
        <time>2009-07-19T08:03:30Z</time>
      </trkpt>
      <trkpt lat="45.5609590" lon="8.8449590">
        <ele>192.8900000</ele>
        <time>2009-07-19T08:03:34Z</time>
      </trkpt>
      <trkpt lat="45.5611540" lon="8.8449420">
        <ele>192.6510000</ele>
        <time>2009-07-19T08:03:38Z</time>
      </trkpt>
      <trkpt lat="45.5612650" lon="8.8448520">
        <ele>192.9530000</ele>
        <time>2009-07-19T08:03:40Z</time>
      </trkpt>
      <trkpt lat="45.5614240" lon="8.8447210">
        <ele>193.0160000</ele>
        <time>2009-07-19T08:03:43Z</time>
      </trkpt>
      <trkpt lat="45.5616520" lon="8.8447210">
        <ele>192.9160000</ele>
        <time>2009-07-19T08:03:47Z</time>
      </trkpt>
      <trkpt lat="45.5617390" lon="8.8449160">
        <ele>192.8560000</ele>
        <time>2009-07-19T08:03:50Z</time>
      </trkpt>
      <trkpt lat="45.5619010" lon="8.8451400">
        <ele>192.9870000</ele>
        <time>2009-07-19T08:03:54Z</time>
      </trkpt>
      <trkpt lat="45.5620940" lon="8.8452410">
        <ele>193.1900000</ele>
        <time>2009-07-19T08:03:58Z</time>
      </trkpt>
      <trkpt lat="45.5621430" lon="8.8452840">
        <ele>193.2790000</ele>
        <time>2009-07-19T08:03:59Z</time>
      </trkpt>
      <trkpt lat="45.5623750" lon="8.8455200">
        <ele>193.4170000</ele>
        <time>2009-07-19T08:04:04Z</time>
      </trkpt>
      <trkpt lat="45.5627250" lon="8.8459520">
        <ele>193.4610000</ele>
        <time>2009-07-19T08:04:12Z</time>
      </trkpt>
      <trkpt lat="45.5628080" lon="8.8460570">
        <ele>193.7390000</ele>
        <time>2009-07-19T08:04:14Z</time>
      </trkpt>
      <trkpt lat="45.5629660" lon="8.8463880">
        <ele>193.7690000</ele>
        <time>2009-07-19T08:04:19Z</time>
      </trkpt>
      <trkpt lat="45.5630610" lon="8.8467100">
        <ele>193.5280000</ele>
        <time>2009-07-19T08:04:23Z</time>
      </trkpt>
      <trkpt lat="45.5631680" lon="8.8468630">
        <ele>193.6920000</ele>
        <time>2009-07-19T08:04:26Z</time>
      </trkpt>
      <trkpt lat="45.5632560" lon="8.8468140">
        <ele>194.0240000</ele>
        <time>2009-07-19T08:04:28Z</time>
      </trkpt>
      <trkpt lat="45.5634920" lon="8.8466420">
        <ele>194.0140000</ele>
        <time>2009-07-19T08:04:33Z</time>
      </trkpt>
      <trkpt lat="45.5640490" lon="8.8462610">
        <ele>194.2580000</ele>
        <time>2009-07-19T08:04:45Z</time>
      </trkpt>
      <trkpt lat="45.5643160" lon="8.8460840">
        <ele>194.5500000</ele>
        <time>2009-07-19T08:04:51Z</time>
      </trkpt>
      <trkpt lat="45.5644080" lon="8.8459030">
        <ele>194.8380000</ele>
        <time>2009-07-19T08:04:55Z</time>
      </trkpt>
      <trkpt lat="45.5644440" lon="8.8458020">
        <ele>194.6090000</ele>
        <time>2009-07-19T08:04:57Z</time>
      </trkpt>
      <trkpt lat="45.5644800" lon="8.8456930">
        <ele>194.9840000</ele>
        <time>2009-07-19T08:04:59Z</time>
      </trkpt>
      <trkpt lat="45.5646200" lon="8.8455850">
        <ele>195.2170000</ele>
        <time>2009-07-19T08:05:04Z</time>
      </trkpt>
      <trkpt lat="45.5647560" lon="8.8455640">
        <ele>194.7800000</ele>
        <time>2009-07-19T08:05:08Z</time>
      </trkpt>
      <trkpt lat="45.5648080" lon="8.8454930">
        <ele>194.8010000</ele>
        <time>2009-07-19T08:05:11Z</time>
      </trkpt>
      <trkpt lat="45.5648770" lon="8.8454460">
        <ele>194.6850000</ele>
        <time>2009-07-19T08:05:15Z</time>
      </trkpt>
      <trkpt lat="45.5648340" lon="8.8453330">
        <ele>194.6500000</ele>
        <time>2009-07-19T08:05:19Z</time>
      </trkpt>
      <trkpt lat="45.5648280" lon="8.8453020">
        <ele>194.7300000</ele>
        <time>2009-07-19T08:05:20Z</time>
      </trkpt>
      <trkpt lat="45.5648290" lon="8.8451330">
        <ele>194.6070000</ele>
        <time>2009-07-19T08:05:25Z</time>
      </trkpt>
      <trkpt lat="45.5648260" lon="8.8450970">
        <ele>194.6290000</ele>
        <time>2009-07-19T08:05:26Z</time>
      </trkpt>
      <trkpt lat="45.5647800" lon="8.8449310">
        <ele>194.3560000</ele>
        <time>2009-07-19T08:05:30Z</time>
      </trkpt>
      <trkpt lat="45.5646580" lon="8.8447340">
        <ele>194.4080000</ele>
        <time>2009-07-19T08:05:35Z</time>
      </trkpt>
      <trkpt lat="45.5645520" lon="8.8446740">
        <ele>194.3110000</ele>
        <time>2009-07-19T08:05:38Z</time>
      </trkpt>
      <trkpt lat="45.5644890" lon="8.8445090">
        <ele>194.2420000</ele>
        <time>2009-07-19T08:05:43Z</time>
      </trkpt>
      <trkpt lat="45.5645250" lon="8.8443350">
        <ele>194.0300000</ele>
        <time>2009-07-19T08:05:47Z</time>
      </trkpt>
      <trkpt lat="45.5645450" lon="8.8441980">
        <ele>193.9400000</ele>
        <time>2009-07-19T08:05:50Z</time>
      </trkpt>
      <trkpt lat="45.5645430" lon="8.8440470">
        <ele>194.0210000</ele>
        <time>2009-07-19T08:05:55Z</time>
      </trkpt>
      <trkpt lat="45.5644530" lon="8.8439810">
        <ele>193.8210000</ele>
        <time>2009-07-19T08:05:58Z</time>
      </trkpt>
      <trkpt lat="45.5644140" lon="8.8438970">
        <ele>193.7310000</ele>
        <time>2009-07-19T08:06:00Z</time>
      </trkpt>
      <trkpt lat="45.5643790" lon="8.8438150">
        <ele>193.7400000</ele>
        <time>2009-07-19T08:06:02Z</time>
      </trkpt>
      <trkpt lat="45.5644120" lon="8.8437210">
        <ele>193.6840000</ele>
        <time>2009-07-19T08:06:06Z</time>
      </trkpt>
      <trkpt lat="45.5644620" lon="8.8436260">
        <ele>193.5030000</ele>
        <time>2009-07-19T08:06:10Z</time>
      </trkpt>
      <trkpt lat="45.5644440" lon="8.8434460">
        <ele>193.5830000</ele>
        <time>2009-07-19T08:06:14Z</time>
      </trkpt>
      <trkpt lat="45.5644110" lon="8.8429410">
        <ele>193.6230000</ele>
        <time>2009-07-19T08:06:21Z</time>
      </trkpt>
      <trkpt lat="45.5644240" lon="8.8425910">
        <ele>193.6690000</ele>
        <time>2009-07-19T08:06:26Z</time>
      </trkpt>
      <trkpt lat="45.5644900" lon="8.8423630">
        <ele>193.2800000</ele>
        <time>2009-07-19T08:06:30Z</time>
      </trkpt>
      <trkpt lat="45.5644480" lon="8.8422100">
        <ele>193.3660000</ele>
        <time>2009-07-19T08:06:33Z</time>
      </trkpt>
      <trkpt lat="45.5643710" lon="8.8420500">
        <ele>193.1320000</ele>
        <time>2009-07-19T08:06:36Z</time>
      </trkpt>
      <trkpt lat="45.5643350" lon="8.8418560">
        <ele>193.0060000</ele>
        <time>2009-07-19T08:06:39Z</time>
      </trkpt>
      <trkpt lat="45.5642860" lon="8.8417350">
        <ele>193.0820000</ele>
        <time>2009-07-19T08:06:41Z</time>
      </trkpt>
      <trkpt lat="45.5640640" lon="8.8412930">
        <ele>193.0530000</ele>
        <time>2009-07-19T08:06:48Z</time>
      </trkpt>
      <trkpt lat="45.5638910" lon="8.8408970">
        <ele>192.9360000</ele>
        <time>2009-07-19T08:06:54Z</time>
      </trkpt>
      <trkpt lat="45.5638250" lon="8.8407590">
        <ele>192.7470000</ele>
        <time>2009-07-19T08:06:56Z</time>
      </trkpt>
      <trkpt lat="45.5636930" lon="8.8404550">
        <ele>192.5190000</ele>
        <time>2009-07-19T08:07:00Z</time>
      </trkpt>
      <trkpt lat="45.5635720" lon="8.8403280">
        <ele>192.5930000</ele>
        <time>2009-07-19T08:07:03Z</time>
      </trkpt>
      <trkpt lat="45.5633760" lon="8.8405000">
        <ele>192.3350000</ele>
        <time>2009-07-19T08:07:08Z</time>
      </trkpt>
      <trkpt lat="45.5630680" lon="8.8407960">
        <ele>192.2420000</ele>
        <time>2009-07-19T08:07:14Z</time>
      </trkpt>
      <trkpt lat="45.5627680" lon="8.8410710">
        <ele>191.8050000</ele>
        <time>2009-07-19T08:07:19Z</time>
      </trkpt>
      <trkpt lat="45.5624770" lon="8.8413180">
        <ele>191.8630000</ele>
        <time>2009-07-19T08:07:24Z</time>
      </trkpt>
      <trkpt lat="45.5623470" lon="8.8414970">
        <ele>191.5730000</ele>
        <time>2009-07-19T08:07:27Z</time>
      </trkpt>
      <trkpt lat="45.5620200" lon="8.8417900">
        <ele>191.5100000</ele>
        <time>2009-07-19T08:07:33Z</time>
      </trkpt>
      <trkpt lat="45.5617270" lon="8.8420770">
        <ele>191.2110000</ele>
        <time>2009-07-19T08:07:38Z</time>
      </trkpt>
      <trkpt lat="45.5614590" lon="8.8421260">
        <ele>191.0220000</ele>
        <time>2009-07-19T08:07:42Z</time>
      </trkpt>
      <trkpt lat="45.5613270" lon="8.8417800">
        <ele>190.8080000</ele>
        <time>2009-07-19T08:07:47Z</time>
      </trkpt>
      <trkpt lat="45.5610930" lon="8.8413170">
        <ele>190.5550000</ele>
        <time>2009-07-19T08:07:53Z</time>
      </trkpt>
      <trkpt lat="45.5608820" lon="8.8409060">
        <ele>190.3660000</ele>
        <time>2009-07-19T08:07:58Z</time>
      </trkpt>
      <trkpt lat="45.5607310" lon="8.8404680">
        <ele>190.2040000</ele>
        <time>2009-07-19T08:08:03Z</time>
      </trkpt>
      <trkpt lat="45.5607080" lon="8.8403780">
        <ele>190.0200000</ele>
        <time>2009-07-19T08:08:04Z</time>
      </trkpt>
      <trkpt lat="45.5606710" lon="8.8401030">
        <ele>190.2890000</ele>
        <time>2009-07-19T08:08:07Z</time>
      </trkpt>
      <trkpt lat="45.5606820" lon="8.8396390">
        <ele>190.4000000</ele>
        <time>2009-07-19T08:08:12Z</time>
      </trkpt>
      <trkpt lat="45.5606760" lon="8.8394280">
        <ele>190.2000000</ele>
        <time>2009-07-19T08:08:15Z</time>
      </trkpt>
      <trkpt lat="45.5605170" lon="8.8393570">
        <ele>189.8060000</ele>
        <time>2009-07-19T08:08:19Z</time>
      </trkpt>
      <trkpt lat="45.5604170" lon="8.8393940">
        <ele>189.7500000</ele>
        <time>2009-07-19T08:08:21Z</time>
      </trkpt>
      <trkpt lat="45.5602260" lon="8.8394930">
        <ele>189.5840000</ele>
        <time>2009-07-19T08:08:25Z</time>
      </trkpt>
      <trkpt lat="45.5601000" lon="8.8396110">
        <ele>189.4880000</ele>
        <time>2009-07-19T08:08:28Z</time>
      </trkpt>
      <trkpt lat="45.5598020" lon="8.8399190">
        <ele>189.2020000</ele>
        <time>2009-07-19T08:08:33Z</time>
      </trkpt>
      <trkpt lat="45.5594030" lon="8.8402300">
        <ele>188.6690000</ele>
        <time>2009-07-19T08:08:38Z</time>
      </trkpt>
      <trkpt lat="45.5593380" lon="8.8402790">
        <ele>188.9020000</ele>
        <time>2009-07-19T08:08:39Z</time>
      </trkpt>
      <trkpt lat="45.5591300" lon="8.8404820">
        <ele>188.9270000</ele>
        <time>2009-07-19T08:08:43Z</time>
      </trkpt>
      <trkpt lat="45.5590170" lon="8.8404380">
        <ele>188.9110000</ele>
        <time>2009-07-19T08:08:47Z</time>
      </trkpt>
      <trkpt lat="45.5590350" lon="8.8402470">
        <ele>188.6510000</ele>
        <time>2009-07-19T08:08:50Z</time>
      </trkpt>
      <trkpt lat="45.5590600" lon="8.8400880">
        <ele>188.6880000</ele>
        <time>2009-07-19T08:08:53Z</time>
      </trkpt>
      <trkpt lat="45.5590240" lon="8.8398260">
        <ele>188.6850000</ele>
        <time>2009-07-19T08:08:57Z</time>
      </trkpt>
      <trkpt lat="45.5590040" lon="8.8397720">
        <ele>188.7030000</ele>
        <time>2009-07-19T08:08:58Z</time>
      </trkpt>
      <trkpt lat="45.5589930" lon="8.8395040">
        <ele>188.8220000</ele>
        <time>2009-07-19T08:09:03Z</time>
      </trkpt>
      <trkpt lat="45.5590280" lon="8.8393630">
        <ele>188.5440000</ele>
        <time>2009-07-19T08:09:06Z</time>
      </trkpt>
      <trkpt lat="45.5589550" lon="8.8392280">
        <ele>188.6310000</ele>
        <time>2009-07-19T08:09:10Z</time>
      </trkpt>
      <trkpt lat="45.5589250" lon="8.8391910">
        <ele>188.3020000</ele>
        <time>2009-07-19T08:09:11Z</time>
      </trkpt>
      <trkpt lat="45.5587290" lon="8.8389910">
        <ele>188.2860000</ele>
        <time>2009-07-19T08:09:16Z</time>
      </trkpt>
      <trkpt lat="45.5586460" lon="8.8389100">
        <ele>188.4280000</ele>
        <time>2009-07-19T08:09:18Z</time>
      </trkpt>
      <trkpt lat="45.5584460" lon="8.8387640">
        <ele>188.0750000</ele>
        <time>2009-07-19T08:09:23Z</time>
      </trkpt>
      <trkpt lat="45.5583770" lon="8.8387100">
        <ele>188.0850000</ele>
        <time>2009-07-19T08:09:25Z</time>
      </trkpt>
      <trkpt lat="45.5583680" lon="8.8384730">
        <ele>188.0280000</ele>
        <time>2009-07-19T08:09:30Z</time>
      </trkpt>
      <trkpt lat="45.5585310" lon="8.8380330">
        <ele>188.1590000</ele>
        <time>2009-07-19T08:09:37Z</time>
      </trkpt>
      <trkpt lat="45.5586670" lon="8.8376080">
        <ele>188.1200000</ele>
        <time>2009-07-19T08:09:43Z</time>
      </trkpt>
      <trkpt lat="45.5588160" lon="8.8373840">
        <ele>188.1530000</ele>
        <time>2009-07-19T08:09:47Z</time>
      </trkpt>
      <trkpt lat="45.5588880" lon="8.8372100">
        <ele>188.4160000</ele>
        <time>2009-07-19T08:09:50Z</time>
      </trkpt>
      <trkpt lat="45.5588300" lon="8.8369020">
        <ele>188.2060000</ele>
        <time>2009-07-19T08:09:54Z</time>
      </trkpt>
      <trkpt lat="45.5588000" lon="8.8366520">
        <ele>188.2460000</ele>
        <time>2009-07-19T08:09:57Z</time>
      </trkpt>
      <trkpt lat="45.5587560" lon="8.8360940">
        <ele>188.2860000</ele>
        <time>2009-07-19T08:10:04Z</time>
      </trkpt>
      <trkpt lat="45.5586930" lon="8.8358760">
        <ele>188.3080000</ele>
        <time>2009-07-19T08:10:07Z</time>
      </trkpt>
      <trkpt lat="45.5583570" lon="8.8352560">
        <ele>187.9860000</ele>
        <time>2009-07-19T08:10:17Z</time>
      </trkpt>
      <trkpt lat="45.5581100" lon="8.8348280">
        <ele>187.6880000</ele>
        <time>2009-07-19T08:10:24Z</time>
      </trkpt>
      <trkpt lat="45.5580330" lon="8.8347170">
        <ele>187.4260000</ele>
        <time>2009-07-19T08:10:26Z</time>
      </trkpt>
      <trkpt lat="45.5578710" lon="8.8343020">
        <ele>187.3470000</ele>
        <time>2009-07-19T08:10:32Z</time>
      </trkpt>
      <trkpt lat="45.5577480" lon="8.8338640">
        <ele>186.9920000</ele>
        <time>2009-07-19T08:10:38Z</time>
      </trkpt>
      <trkpt lat="45.5576820" lon="8.8336810">
        <ele>187.1330000</ele>
        <time>2009-07-19T08:10:41Z</time>
      </trkpt>
      <trkpt lat="45.5575440" lon="8.8334940">
        <ele>187.1440000</ele>
        <time>2009-07-19T08:10:45Z</time>
      </trkpt>
      <trkpt lat="45.5572590" lon="8.8332780">
        <ele>186.4200000</ele>
        <time>2009-07-19T08:10:51Z</time>
      </trkpt>
      <trkpt lat="45.5571220" lon="8.8331100">
        <ele>186.4050000</ele>
        <time>2009-07-19T08:10:56Z</time>
      </trkpt>
      <trkpt lat="45.5570520" lon="8.8329440">
        <ele>186.4720000</ele>
        <time>2009-07-19T08:11:00Z</time>
      </trkpt>
      <trkpt lat="45.5570880" lon="8.8328120">
        <ele>186.3750000</ele>
        <time>2009-07-19T08:11:04Z</time>
      </trkpt>
      <trkpt lat="45.5571360" lon="8.8327000">
        <ele>186.5650000</ele>
        <time>2009-07-19T08:11:07Z</time>
      </trkpt>
      <trkpt lat="45.5571850" lon="8.8326610">
        <ele>186.4260000</ele>
        <time>2009-07-19T08:11:10Z</time>
      </trkpt>
      <trkpt lat="45.5572360" lon="8.8325840">
        <ele>186.2380000</ele>
        <time>2009-07-19T08:11:13Z</time>
      </trkpt>
      <trkpt lat="45.5573090" lon="8.8326260">
        <ele>186.4310000</ele>
        <time>2009-07-19T08:11:15Z</time>
      </trkpt>
      <trkpt lat="45.5575410" lon="8.8327860">
        <ele>186.6520000</ele>
        <time>2009-07-19T08:11:21Z</time>
      </trkpt>
      <trkpt lat="45.5577610" lon="8.8328560">
        <ele>186.8450000</ele>
        <time>2009-07-19T08:11:26Z</time>
      </trkpt>
      <trkpt lat="45.5580920" lon="8.8329510">
        <ele>186.4600000</ele>
        <time>2009-07-19T08:11:33Z</time>
      </trkpt>
      <trkpt lat="45.5583820" lon="8.8328560">
        <ele>186.8560000</ele>
        <time>2009-07-19T08:11:39Z</time>
      </trkpt>
      <trkpt lat="45.5586490" lon="8.8326490">
        <ele>186.6600000</ele>
        <time>2009-07-19T08:11:45Z</time>
      </trkpt>
      <trkpt lat="45.5589770" lon="8.8323840">
        <ele>186.6430000</ele>
        <time>2009-07-19T08:11:52Z</time>
      </trkpt>
      <trkpt lat="45.5591670" lon="8.8322600">
        <ele>187.0450000</ele>
        <time>2009-07-19T08:11:57Z</time>
      </trkpt>
      <trkpt lat="45.5592610" lon="8.8322420">
        <ele>187.1380000</ele>
        <time>2009-07-19T08:12:01Z</time>
      </trkpt>
      <trkpt lat="45.5592350" lon="8.8321180">
        <ele>185.5690000</ele>
        <time>2009-07-19T08:12:04Z</time>
      </trkpt>
      <trkpt lat="45.5590290" lon="8.8320970">
        <ele>181.8860000</ele>
        <time>2009-07-19T08:12:07Z</time>
      </trkpt>
      <trkpt lat="45.5587550" lon="8.8321930">
        <ele>179.5350000</ele>
        <time>2009-07-19T08:12:10Z</time>
      </trkpt>
      <trkpt lat="45.5586690" lon="8.8322530">
        <ele>179.0090000</ele>
        <time>2009-07-19T08:12:11Z</time>
      </trkpt>
      <trkpt lat="45.5583590" lon="8.8325110">
        <ele>177.8600000</ele>
        <time>2009-07-19T08:12:15Z</time>
      </trkpt>
      <trkpt lat="45.5580140" lon="8.8325610">
        <ele>176.6680000</ele>
        <time>2009-07-19T08:12:19Z</time>
      </trkpt>
      <trkpt lat="45.5579290" lon="8.8325350">
        <ele>176.0260000</ele>
        <time>2009-07-19T08:12:20Z</time>
      </trkpt>
      <trkpt lat="45.5576880" lon="8.8324190">
        <ele>175.2610000</ele>
        <time>2009-07-19T08:12:23Z</time>
      </trkpt>
      <trkpt lat="45.5575830" lon="8.8321290">
        <ele>173.8020000</ele>
        <time>2009-07-19T08:12:27Z</time>
      </trkpt>
      <trkpt lat="45.5575980" lon="8.8320390">
        <ele>173.4130000</ele>
        <time>2009-07-19T08:12:28Z</time>
      </trkpt>
      <trkpt lat="45.5576940" lon="8.8317330">
        <ele>171.3240000</ele>
        <time>2009-07-19T08:12:31Z</time>
      </trkpt>
      <trkpt lat="45.5577660" lon="8.8315040">
        <ele>170.5390000</ele>
        <time>2009-07-19T08:12:33Z</time>
      </trkpt>
      <trkpt lat="45.5579250" lon="8.8309490">
        <ele>169.9540000</ele>
        <time>2009-07-19T08:12:38Z</time>
      </trkpt>
      <trkpt lat="45.5580640" lon="8.8304620">
        <ele>167.1540000</ele>
        <time>2009-07-19T08:12:42Z</time>
      </trkpt>
      <trkpt lat="45.5583640" lon="8.8297310">
        <ele>165.3720000</ele>
        <time>2009-07-19T08:12:48Z</time>
      </trkpt>
      <trkpt lat="45.5584610" lon="8.8294430">
        <ele>164.7870000</ele>
        <time>2009-07-19T08:12:51Z</time>
      </trkpt>
      <trkpt lat="45.5584100" lon="8.8292710">
        <ele>164.5240000</ele>
        <time>2009-07-19T08:12:55Z</time>
      </trkpt>
      <trkpt lat="45.5583280" lon="8.8292630">
        <ele>164.5500000</ele>
        <time>2009-07-19T08:12:57Z</time>
      </trkpt>
      <trkpt lat="45.5580190" lon="8.8292680">
        <ele>166.8240000</ele>
        <time>2009-07-19T08:13:04Z</time>
      </trkpt>
      <trkpt lat="45.5578390" lon="8.8292770">
        <ele>169.4270000</ele>
        <time>2009-07-19T08:13:09Z</time>
      </trkpt>
      <trkpt lat="45.5576490" lon="8.8294020">
        <ele>170.8260000</ele>
        <time>2009-07-19T08:13:15Z</time>
      </trkpt>
      <trkpt lat="45.5574870" lon="8.8295060">
        <ele>172.0730000</ele>
        <time>2009-07-19T08:13:21Z</time>
      </trkpt>
      <trkpt lat="45.5573150" lon="8.8295210">
        <ele>174.1430000</ele>
        <time>2009-07-19T08:13:28Z</time>
      </trkpt>
      <trkpt lat="45.5571580" lon="8.8295140">
        <ele>176.5250000</ele>
        <time>2009-07-19T08:13:35Z</time>
      </trkpt>
      <trkpt lat="45.5569550" lon="8.8294750">
        <ele>179.9430000</ele>
        <time>2009-07-19T08:13:45Z</time>
      </trkpt>
      <trkpt lat="45.5568390" lon="8.8294620">
        <ele>181.4650000</ele>
        <time>2009-07-19T08:13:51Z</time>
      </trkpt>
      <trkpt lat="45.5567100" lon="8.8294830">
        <ele>181.7350000</ele>
        <time>2009-07-19T08:13:57Z</time>
      </trkpt>
      <trkpt lat="45.5566020" lon="8.8295050">
        <ele>181.9980000</ele>
        <time>2009-07-19T08:14:01Z</time>
      </trkpt>
      <trkpt lat="45.5565330" lon="8.8297490">
        <ele>181.7150000</ele>
        <time>2009-07-19T08:14:07Z</time>
      </trkpt>
      <trkpt lat="45.5564810" lon="8.8301700">
        <ele>182.1800000</ele>
        <time>2009-07-19T08:14:16Z</time>
      </trkpt>
      <trkpt lat="45.5565000" lon="8.8302630">
        <ele>182.3170000</ele>
        <time>2009-07-19T08:14:18Z</time>
      </trkpt>
      <trkpt lat="45.5566260" lon="8.8303780">
        <ele>181.9540000</ele>
        <time>2009-07-19T08:14:22Z</time>
      </trkpt>
      <trkpt lat="45.5568370" lon="8.8304480">
        <ele>181.4010000</ele>
        <time>2009-07-19T08:14:27Z</time>
      </trkpt>
      <trkpt lat="45.5569530" lon="8.8305640">
        <ele>180.7960000</ele>
        <time>2009-07-19T08:14:31Z</time>
      </trkpt>
      <trkpt lat="45.5569600" lon="8.8306000">
        <ele>180.9570000</ele>
        <time>2009-07-19T08:14:35Z</time>
      </trkpt>
      <trkpt lat="45.5569720" lon="8.8306830">
        <ele>181.8530000</ele>
        <time>2009-07-19T08:14:42Z</time>
      </trkpt>
      <trkpt lat="45.5569730" lon="8.8307290">
        <ele>182.9150000</ele>
        <time>2009-07-19T08:14:50Z</time>
      </trkpt>
      <trkpt lat="45.5569950" lon="8.8307920">
        <ele>184.9700000</ele>
        <time>2009-07-19T08:14:58Z</time>
      </trkpt>
      <trkpt lat="45.5570110" lon="8.8308280">
        <ele>185.6160000</ele>
        <time>2009-07-19T08:15:01Z</time>
      </trkpt>
      <trkpt lat="45.5571200" lon="8.8308740">
        <ele>185.8400000</ele>
        <time>2009-07-19T08:15:08Z</time>
      </trkpt>
      <trkpt lat="45.5572910" lon="8.8309150">
        <ele>185.7220000</ele>
        <time>2009-07-19T08:15:14Z</time>
      </trkpt>
      <trkpt lat="45.5575570" lon="8.8309740">
        <ele>186.0000000</ele>
        <time>2009-07-19T08:15:22Z</time>
      </trkpt>
      <trkpt lat="45.5576190" lon="8.8311200">
        <ele>185.9830000</ele>
        <time>2009-07-19T08:15:26Z</time>
      </trkpt>
      <trkpt lat="45.5575880" lon="8.8312430">
        <ele>185.7370000</ele>
        <time>2009-07-19T08:15:29Z</time>
      </trkpt>
      <trkpt lat="45.5575050" lon="8.8315960">
        <ele>186.0130000</ele>
        <time>2009-07-19T08:15:36Z</time>
      </trkpt>
      <trkpt lat="45.5574140" lon="8.8319540">
        <ele>186.2400000</ele>
        <time>2009-07-19T08:15:41Z</time>
      </trkpt>
      <trkpt lat="45.5573740" lon="8.8321100">
        <ele>186.0320000</ele>
        <time>2009-07-19T08:15:43Z</time>
      </trkpt>
      <trkpt lat="45.5573490" lon="8.8323230">
        <ele>186.3820000</ele>
        <time>2009-07-19T08:15:46Z</time>
      </trkpt>
      <trkpt lat="45.5572650" lon="8.8325440">
        <ele>186.1120000</ele>
        <time>2009-07-19T08:15:50Z</time>
      </trkpt>
      <trkpt lat="45.5571700" lon="8.8325720">
        <ele>185.9620000</ele>
        <time>2009-07-19T08:15:53Z</time>
      </trkpt>
      <trkpt lat="45.5571430" lon="8.8325510">
        <ele>185.9710000</ele>
        <time>2009-07-19T08:15:54Z</time>
      </trkpt>
      <trkpt lat="45.5569620" lon="8.8324240">
        <ele>185.8100000</ele>
        <time>2009-07-19T08:15:59Z</time>
      </trkpt>
      <trkpt lat="45.5567360" lon="8.8322940">
        <ele>185.5840000</ele>
        <time>2009-07-19T08:16:04Z</time>
      </trkpt>
      <trkpt lat="45.5566840" lon="8.8322570">
        <ele>185.5880000</ele>
        <time>2009-07-19T08:16:05Z</time>
      </trkpt>
      <trkpt lat="45.5565050" lon="8.8321610">
        <ele>185.6060000</ele>
        <time>2009-07-19T08:16:08Z</time>
      </trkpt>
      <trkpt lat="45.5563290" lon="8.8319210">
        <ele>185.5430000</ele>
        <time>2009-07-19T08:16:12Z</time>
      </trkpt>
      <trkpt lat="45.5563050" lon="8.8318420">
        <ele>185.4260000</ele>
        <time>2009-07-19T08:16:13Z</time>
      </trkpt>
      <trkpt lat="45.5562560" lon="8.8316670">
        <ele>185.2940000</ele>
        <time>2009-07-19T08:16:15Z</time>
      </trkpt>
      <trkpt lat="45.5561890" lon="8.8314800">
        <ele>185.2170000</ele>
        <time>2009-07-19T08:16:17Z</time>
      </trkpt>
      <trkpt lat="45.5559340" lon="8.8312580">
        <ele>185.2560000</ele>
        <time>2009-07-19T08:16:22Z</time>
      </trkpt>
      <trkpt lat="45.5558190" lon="8.8312100">
        <ele>185.1730000</ele>
        <time>2009-07-19T08:16:24Z</time>
      </trkpt>
      <trkpt lat="45.5556530" lon="8.8310890">
        <ele>185.1680000</ele>
        <time>2009-07-19T08:16:27Z</time>
      </trkpt>
      <trkpt lat="45.5554820" lon="8.8310870">
        <ele>185.2120000</ele>
        <time>2009-07-19T08:16:31Z</time>
      </trkpt>
      <trkpt lat="45.5554650" lon="8.8312090">
        <ele>185.0750000</ele>
        <time>2009-07-19T08:16:33Z</time>
      </trkpt>
      <trkpt lat="45.5554250" lon="8.8314610">
        <ele>184.9690000</ele>
        <time>2009-07-19T08:16:37Z</time>
      </trkpt>
      <trkpt lat="45.5553770" lon="8.8316850">
        <ele>185.0770000</ele>
        <time>2009-07-19T08:16:40Z</time>
      </trkpt>
      <trkpt lat="45.5552920" lon="8.8321870">
        <ele>184.8400000</ele>
        <time>2009-07-19T08:16:46Z</time>
      </trkpt>
      <trkpt lat="45.5552360" lon="8.8326390">
        <ele>184.7040000</ele>
        <time>2009-07-19T08:16:51Z</time>
      </trkpt>
      <trkpt lat="45.5552130" lon="8.8330640">
        <ele>185.1600000</ele>
        <time>2009-07-19T08:16:56Z</time>
      </trkpt>
      <trkpt lat="45.5552020" lon="8.8333960">
        <ele>184.9700000</ele>
        <time>2009-07-19T08:17:00Z</time>
      </trkpt>
      <trkpt lat="45.5551750" lon="8.8337500">
        <ele>184.8760000</ele>
        <time>2009-07-19T08:17:04Z</time>
      </trkpt>
      <trkpt lat="45.5550810" lon="8.8341350">
        <ele>185.2360000</ele>
        <time>2009-07-19T08:17:09Z</time>
      </trkpt>
      <trkpt lat="45.5549240" lon="8.8341930">
        <ele>184.6060000</ele>
        <time>2009-07-19T08:17:12Z</time>
      </trkpt>
      <trkpt lat="45.5545680" lon="8.8342950">
        <ele>184.7180000</ele>
        <time>2009-07-19T08:17:18Z</time>
      </trkpt>
      <trkpt lat="45.5543310" lon="8.8343020">
        <ele>184.2190000</ele>
        <time>2009-07-19T08:17:22Z</time>
      </trkpt>
      <trkpt lat="45.5541650" lon="8.8342830">
        <ele>184.1470000</ele>
        <time>2009-07-19T08:17:25Z</time>
      </trkpt>
      <trkpt lat="45.5538630" lon="8.8343850">
        <ele>183.8710000</ele>
        <time>2009-07-19T08:17:30Z</time>
      </trkpt>
      <trkpt lat="45.5536810" lon="8.8346080">
        <ele>183.7110000</ele>
        <time>2009-07-19T08:17:34Z</time>
      </trkpt>
      <trkpt lat="45.5537080" lon="8.8347920">
        <ele>183.7110000</ele>
        <time>2009-07-19T08:17:37Z</time>
      </trkpt>
      <trkpt lat="45.5537700" lon="8.8349080">
        <ele>184.0530000</ele>
        <time>2009-07-19T08:17:39Z</time>
      </trkpt>
      <trkpt lat="45.5539460" lon="8.8353390">
        <ele>184.1140000</ele>
        <time>2009-07-19T08:17:45Z</time>
      </trkpt>
      <trkpt lat="45.5540720" lon="8.8356190">
        <ele>184.1450000</ele>
        <time>2009-07-19T08:17:49Z</time>
      </trkpt>
      <trkpt lat="45.5541600" lon="8.8358300">
        <ele>184.2400000</ele>
        <time>2009-07-19T08:17:52Z</time>
      </trkpt>
      <trkpt lat="45.5544620" lon="8.8363840">
        <ele>184.5290000</ele>
        <time>2009-07-19T08:18:00Z</time>
      </trkpt>
      <trkpt lat="45.5547220" lon="8.8368050">
        <ele>184.9590000</ele>
        <time>2009-07-19T08:18:07Z</time>
      </trkpt>
      <trkpt lat="45.5550290" lon="8.8373710">
        <ele>185.3070000</ele>
        <time>2009-07-19T08:18:16Z</time>
      </trkpt>
      <trkpt lat="45.5552650" lon="8.8378280">
        <ele>185.4190000</ele>
        <time>2009-07-19T08:18:23Z</time>
      </trkpt>
      <trkpt lat="45.5555550" lon="8.8384150">
        <ele>185.6850000</ele>
        <time>2009-07-19T08:18:32Z</time>
      </trkpt>
      <trkpt lat="45.5557830" lon="8.8388410">
        <ele>186.0310000</ele>
        <time>2009-07-19T08:18:39Z</time>
      </trkpt>
      <trkpt lat="45.5559330" lon="8.8390650">
        <ele>186.0460000</ele>
        <time>2009-07-19T08:18:43Z</time>
      </trkpt>
      <trkpt lat="45.5561430" lon="8.8392150">
        <ele>185.9710000</ele>
        <time>2009-07-19T08:18:48Z</time>
      </trkpt>
      <trkpt lat="45.5562350" lon="8.8392450">
        <ele>186.1490000</ele>
        <time>2009-07-19T08:18:50Z</time>
      </trkpt>
      <trkpt lat="45.5563880" lon="8.8394330">
        <ele>186.3920000</ele>
        <time>2009-07-19T08:18:54Z</time>
      </trkpt>
      <trkpt lat="45.5566200" lon="8.8398460">
        <ele>186.3770000</ele>
        <time>2009-07-19T08:19:01Z</time>
      </trkpt>
      <trkpt lat="45.5567780" lon="8.8401540">
        <ele>186.5250000</ele>
        <time>2009-07-19T08:19:06Z</time>
      </trkpt>
      <trkpt lat="45.5570650" lon="8.8405310">
        <ele>186.5440000</ele>
        <time>2009-07-19T08:19:13Z</time>
      </trkpt>
      <trkpt lat="45.5573700" lon="8.8408680">
        <ele>187.0140000</ele>
        <time>2009-07-19T08:19:20Z</time>
      </trkpt>
      <trkpt lat="45.5575550" lon="8.8410560">
        <ele>187.0550000</ele>
        <time>2009-07-19T08:19:24Z</time>
      </trkpt>
      <trkpt lat="45.5577130" lon="8.8411470">
        <ele>187.1170000</ele>
        <time>2009-07-19T08:19:27Z</time>
      </trkpt>
      <trkpt lat="45.5580960" lon="8.8414180">
        <ele>187.3070000</ele>
        <time>2009-07-19T08:19:35Z</time>
      </trkpt>
      <trkpt lat="45.5581500" lon="8.8415340">
        <ele>187.6260000</ele>
        <time>2009-07-19T08:19:39Z</time>
      </trkpt>
      <trkpt lat="45.5580830" lon="8.8415810">
        <ele>187.6910000</ele>
        <time>2009-07-19T08:19:42Z</time>
      </trkpt>
      <trkpt lat="45.5580310" lon="8.8416120">
        <ele>187.7790000</ele>
        <time>2009-07-19T08:19:44Z</time>
      </trkpt>
      <trkpt lat="45.5577720" lon="8.8418070">
        <ele>187.5630000</ele>
        <time>2009-07-19T08:19:50Z</time>
      </trkpt>
      <trkpt lat="45.5575770" lon="8.8420690">
        <ele>187.0540000</ele>
        <time>2009-07-19T08:19:55Z</time>
      </trkpt>
      <trkpt lat="45.5574100" lon="8.8423140">
        <ele>186.7830000</ele>
        <time>2009-07-19T08:20:00Z</time>
      </trkpt>
      <trkpt lat="45.5573290" lon="8.8425150">
        <ele>187.0240000</ele>
        <time>2009-07-19T08:20:05Z</time>
      </trkpt>
      <trkpt lat="45.5573100" lon="8.8425500">
        <ele>187.0850000</ele>
        <time>2009-07-19T08:20:06Z</time>
      </trkpt>
      <trkpt lat="45.5571840" lon="8.8426330">
        <ele>186.9440000</ele>
        <time>2009-07-19T08:20:11Z</time>
      </trkpt>
      <trkpt lat="45.5571210" lon="8.8426710">
        <ele>186.8800000</ele>
        <time>2009-07-19T08:20:13Z</time>
      </trkpt>
      <trkpt lat="45.5568300" lon="8.8430250">
        <ele>186.9630000</ele>
        <time>2009-07-19T08:20:21Z</time>
      </trkpt>
      <trkpt lat="45.5567150" lon="8.8431560">
        <ele>186.9880000</ele>
        <time>2009-07-19T08:20:24Z</time>
      </trkpt>
      <trkpt lat="45.5566870" lon="8.8432760">
        <ele>188.4930000</ele>
        <time>2009-07-19T08:20:27Z</time>
      </trkpt>
      <trkpt lat="45.5566810" lon="8.8432980">
        <ele>188.3490000</ele>
        <time>2009-07-19T08:20:31Z</time>
      </trkpt>
      <trkpt lat="45.5565870" lon="8.8434000">
        <ele>186.7090000</ele>
        <time>2009-07-19T08:20:35Z</time>
      </trkpt>
      <trkpt lat="45.5563310" lon="8.8437060">
        <ele>186.6670000</ele>
        <time>2009-07-19T08:20:42Z</time>
      </trkpt>
      <trkpt lat="45.5561040" lon="8.8440080">
        <ele>186.5750000</ele>
        <time>2009-07-19T08:20:48Z</time>
      </trkpt>
      <trkpt lat="45.5557980" lon="8.8442720">
        <ele>186.6960000</ele>
        <time>2009-07-19T08:20:55Z</time>
      </trkpt>
      <trkpt lat="45.5557580" lon="8.8443080">
        <ele>186.6690000</ele>
        <time>2009-07-19T08:20:56Z</time>
      </trkpt>
      <trkpt lat="45.5556510" lon="8.8444940">
        <ele>186.8720000</ele>
        <time>2009-07-19T08:21:01Z</time>
      </trkpt>
      <trkpt lat="45.5555830" lon="8.8445340">
        <ele>186.7400000</ele>
        <time>2009-07-19T08:21:04Z</time>
      </trkpt>
      <trkpt lat="45.5555590" lon="8.8445540">
        <ele>186.6170000</ele>
        <time>2009-07-19T08:21:05Z</time>
      </trkpt>
      <trkpt lat="45.5554820" lon="8.8447710">
        <ele>186.8160000</ele>
        <time>2009-07-19T08:21:11Z</time>
      </trkpt>
      <trkpt lat="45.5555310" lon="8.8449110">
        <ele>187.4850000</ele>
        <time>2009-07-19T08:21:15Z</time>
      </trkpt>
      <trkpt lat="45.5555960" lon="8.8450300">
        <ele>187.4540000</ele>
        <time>2009-07-19T08:21:19Z</time>
      </trkpt>
      <trkpt lat="45.5556000" lon="8.8450660">
        <ele>187.1210000</ele>
        <time>2009-07-19T08:21:20Z</time>
      </trkpt>
      <trkpt lat="45.5556360" lon="8.8452880">
        <ele>186.8140000</ele>
        <time>2009-07-19T08:21:25Z</time>
      </trkpt>
      <trkpt lat="45.5557340" lon="8.8454940">
        <ele>186.8870000</ele>
        <time>2009-07-19T08:21:30Z</time>
      </trkpt>
      <trkpt lat="45.5558560" lon="8.8457640">
        <ele>186.9940000</ele>
        <time>2009-07-19T08:21:36Z</time>
      </trkpt>
      <trkpt lat="45.5559310" lon="8.8459320">
        <ele>187.1480000</ele>
        <time>2009-07-19T08:21:40Z</time>
      </trkpt>
      <trkpt lat="45.5559650" lon="8.8460120">
        <ele>187.1010000</ele>
        <time>2009-07-19T08:21:42Z</time>
      </trkpt>
      <trkpt lat="45.5559660" lon="8.8462390">
        <ele>187.2430000</ele>
        <time>2009-07-19T08:21:47Z</time>
      </trkpt>
      <trkpt lat="45.5558910" lon="8.8463680">
        <ele>187.1170000</ele>
        <time>2009-07-19T08:21:51Z</time>
      </trkpt>
      <trkpt lat="45.5558570" lon="8.8464000">
        <ele>187.1800000</ele>
        <time>2009-07-19T08:21:52Z</time>
      </trkpt>
      <trkpt lat="45.5556410" lon="8.8465980">
        <ele>187.0810000</ele>
        <time>2009-07-19T08:21:57Z</time>
      </trkpt>
      <trkpt lat="45.5553400" lon="8.8468550">
        <ele>186.5720000</ele>
        <time>2009-07-19T08:22:03Z</time>
      </trkpt>
      <trkpt lat="45.5550520" lon="8.8470790">
        <ele>186.6760000</ele>
        <time>2009-07-19T08:22:09Z</time>
      </trkpt>
      <trkpt lat="45.5548000" lon="8.8470770">
        <ele>186.3410000</ele>
        <time>2009-07-19T08:22:14Z</time>
      </trkpt>
      <trkpt lat="45.5547730" lon="8.8469560">
        <ele>186.6310000</ele>
        <time>2009-07-19T08:22:17Z</time>
      </trkpt>
      <trkpt lat="45.5547080" lon="8.8468360">
        <ele>186.3470000</ele>
        <time>2009-07-19T08:22:20Z</time>
      </trkpt>
      <trkpt lat="45.5546670" lon="8.8468070">
        <ele>186.4700000</ele>
        <time>2009-07-19T08:22:21Z</time>
      </trkpt>
      <trkpt lat="45.5545950" lon="8.8467490">
        <ele>186.4940000</ele>
        <time>2009-07-19T08:22:23Z</time>
      </trkpt>
      <trkpt lat="45.5545760" lon="8.8465560">
        <ele>186.3460000</ele>
        <time>2009-07-19T08:22:27Z</time>
      </trkpt>
      <trkpt lat="45.5544870" lon="8.8463790">
        <ele>186.4040000</ele>
        <time>2009-07-19T08:22:32Z</time>
      </trkpt>
      <trkpt lat="45.5543540" lon="8.8462800">
        <ele>186.2000000</ele>
        <time>2009-07-19T08:22:36Z</time>
      </trkpt>
      <trkpt lat="45.5543110" lon="8.8462880">
        <ele>185.9560000</ele>
        <time>2009-07-19T08:22:39Z</time>
      </trkpt>
      <trkpt lat="45.5542780" lon="8.8464060">
        <ele>186.0410000</ele>
        <time>2009-07-19T08:22:43Z</time>
      </trkpt>
      <trkpt lat="45.5542250" lon="8.8465030">
        <ele>186.0090000</ele>
        <time>2009-07-19T08:22:45Z</time>
      </trkpt>
      <trkpt lat="45.5541570" lon="8.8466050">
        <ele>186.0220000</ele>
        <time>2009-07-19T08:22:47Z</time>
      </trkpt>
      <trkpt lat="45.5540100" lon="8.8467410">
        <ele>185.9220000</ele>
        <time>2009-07-19T08:22:51Z</time>
      </trkpt>
      <trkpt lat="45.5539150" lon="8.8467520">
        <ele>185.6210000</ele>
        <time>2009-07-19T08:22:54Z</time>
      </trkpt>
      <trkpt lat="45.5538990" lon="8.8468510">
        <ele>185.7040000</ele>
        <time>2009-07-19T08:22:57Z</time>
      </trkpt>
      <trkpt lat="45.5538670" lon="8.8469870">
        <ele>185.6570000</ele>
        <time>2009-07-19T08:23:00Z</time>
      </trkpt>
      <trkpt lat="45.5538610" lon="8.8472050">
        <ele>185.7030000</ele>
        <time>2009-07-19T08:23:04Z</time>
      </trkpt>
      <trkpt lat="45.5538300" lon="8.8472520">
        <ele>185.7850000</ele>
        <time>2009-07-19T08:23:05Z</time>
      </trkpt>
      <trkpt lat="45.5535860" lon="8.8476540">
        <ele>185.4310000</ele>
        <time>2009-07-19T08:23:12Z</time>
      </trkpt>
      <trkpt lat="45.5533530" lon="8.8480210">
        <ele>184.8540000</ele>
        <time>2009-07-19T08:23:18Z</time>
      </trkpt>
      <trkpt lat="45.5530490" lon="8.8483880">
        <ele>184.5770000</ele>
        <time>2009-07-19T08:23:25Z</time>
      </trkpt>
      <trkpt lat="45.5526760" lon="8.8488780">
        <ele>184.4080000</ele>
        <time>2009-07-19T08:23:34Z</time>
      </trkpt>
      <trkpt lat="45.5525470" lon="8.8490400">
        <ele>184.1660000</ele>
        <time>2009-07-19T08:23:37Z</time>
      </trkpt>
      <trkpt lat="45.5524580" lon="8.8492470">
        <ele>184.4540000</ele>
        <time>2009-07-19T08:23:41Z</time>
      </trkpt>
      <trkpt lat="45.5524690" lon="8.8493680">
        <ele>184.6680000</ele>
        <time>2009-07-19T08:23:43Z</time>
      </trkpt>
      <trkpt lat="45.5525270" lon="8.8497170">
        <ele>184.9970000</ele>
        <time>2009-07-19T08:23:48Z</time>
      </trkpt>
      <trkpt lat="45.5526650" lon="8.8501140">
        <ele>184.8370000</ele>
        <time>2009-07-19T08:23:54Z</time>
      </trkpt>
      <trkpt lat="45.5525920" lon="8.8503200">
        <ele>184.8110000</ele>
        <time>2009-07-19T08:23:58Z</time>
      </trkpt>
      <trkpt lat="45.5523100" lon="8.8507660">
        <ele>184.9450000</ele>
        <time>2009-07-19T08:24:06Z</time>
      </trkpt>
      <trkpt lat="45.5519940" lon="8.8511880">
        <ele>184.6940000</ele>
        <time>2009-07-19T08:24:14Z</time>
      </trkpt>
      <trkpt lat="45.5517920" lon="8.8514450">
        <ele>184.5340000</ele>
        <time>2009-07-19T08:24:19Z</time>
      </trkpt>
      <trkpt lat="45.5517200" lon="8.8517020">
        <ele>184.5740000</ele>
        <time>2009-07-19T08:24:23Z</time>
      </trkpt>
      <trkpt lat="45.5518010" lon="8.8519460">
        <ele>184.7190000</ele>
        <time>2009-07-19T08:24:27Z</time>
      </trkpt>
      <trkpt lat="45.5520100" lon="8.8526340">
        <ele>185.1260000</ele>
        <time>2009-07-19T08:24:37Z</time>
      </trkpt>
      <trkpt lat="45.5522360" lon="8.8533880">
        <ele>184.9370000</ele>
        <time>2009-07-19T08:24:47Z</time>
      </trkpt>
      <trkpt lat="45.5523910" lon="8.8540750">
        <ele>185.0270000</ele>
        <time>2009-07-19T08:24:55Z</time>
      </trkpt>
      <trkpt lat="45.5524420" lon="8.8543600">
        <ele>184.8590000</ele>
        <time>2009-07-19T08:24:58Z</time>
      </trkpt>
      <trkpt lat="45.5526390" lon="8.8545620">
        <ele>184.8620000</ele>
        <time>2009-07-19T08:25:02Z</time>
      </trkpt>
      <trkpt lat="45.5527080" lon="8.8545760">
        <ele>184.9620000</ele>
        <time>2009-07-19T08:25:03Z</time>
      </trkpt>
      <trkpt lat="45.5532090" lon="8.8545290">
        <ele>189.5960000</ele>
        <time>2009-07-19T07:58:37Z</time>
      </trkpt>
      <trkpt lat="45.5532620" lon="8.8545020">
        <ele>189.5940000</ele>
        <time>2009-07-19T07:58:38Z</time>
      </trkpt>
      <trkpt lat="45.5534190" lon="8.8543780">
        <ele>190.4090000</ele>
        <time>2009-07-19T07:58:41Z</time>
      </trkpt>
      <trkpt lat="45.5533800" lon="8.8540800">
        <ele>190.6110000</ele>
        <time>2009-07-19T07:58:44Z</time>
      </trkpt>
      <trkpt lat="45.5533130" lon="8.8533430">
        <ele>190.5020000</ele>
        <time>2009-07-19T07:58:52Z</time>
      </trkpt>
      <trkpt lat="45.5532330" lon="8.8525620">
        <ele>190.3560000</ele>
        <time>2009-07-19T07:59:00Z</time>
      </trkpt>
      <trkpt lat="45.5531580" lon="8.8516740">
        <ele>190.4550000</ele>
        <time>2009-07-19T07:59:09Z</time>
      </trkpt>
      <trkpt lat="45.5530970" lon="8.8511000">
        <ele>190.4490000</ele>
        <time>2009-07-19T07:59:15Z</time>
      </trkpt>
      <trkpt lat="45.5529390" lon="8.8505690">
        <ele>190.3270000</ele>
        <time>2009-07-19T07:59:21Z</time>
      </trkpt>
      <trkpt lat="45.5529580" lon="8.8502750">
        <ele>190.0960000</ele>
        <time>2009-07-19T07:59:25Z</time>
      </trkpt>
      <trkpt lat="45.5531510" lon="8.8500720">
        <ele>189.6660000</ele>
        <time>2009-07-19T07:59:29Z</time>
      </trkpt>
      <trkpt lat="45.5533050" lon="8.8499630">
        <ele>189.5560000</ele>
        <time>2009-07-19T07:59:32Z</time>
      </trkpt>
      <trkpt lat="45.5533600" lon="8.8497370">
        <ele>189.8560000</ele>
        <time>2009-07-19T07:59:36Z</time>
      </trkpt>
      <trkpt lat="45.5532940" lon="8.8495390">
        <ele>189.7330000</ele>
        <time>2009-07-19T07:59:39Z</time>
      </trkpt>
      <trkpt lat="45.5533080" lon="8.8493470">
        <ele>190.3990000</ele>
        <time>2009-07-19T07:59:42Z</time>
      </trkpt>
      <trkpt lat="45.5533490" lon="8.8493090">
        <ele>189.9760000</ele>
        <time>2009-07-19T07:59:43Z</time>
      </trkpt>
      <trkpt lat="45.5536940" lon="8.8490510">
        <ele>190.1260000</ele>
        <time>2009-07-19T07:59:51Z</time>
      </trkpt>
      <trkpt lat="45.5540710" lon="8.8487460">
        <ele>189.7260000</ele>
        <time>2009-07-19T08:00:00Z</time>
      </trkpt>
      <trkpt lat="45.5542830" lon="8.8485570">
        <ele>189.8880000</ele>
        <time>2009-07-19T08:00:06Z</time>
      </trkpt>
      <trkpt lat="45.5544460" lon="8.8482370">
        <ele>189.9200000</ele>
        <time>2009-07-19T08:00:12Z</time>
      </trkpt>
      <trkpt lat="45.5545450" lon="8.8479990">
        <ele>189.8790000</ele>
        <time>2009-07-19T08:00:16Z</time>
      </trkpt>
      <trkpt lat="45.5546470" lon="8.8478290">
        <ele>190.3400000</ele>
        <time>2009-07-19T08:00:20Z</time>
      </trkpt>
      <trkpt lat="45.5547160" lon="8.8478580">
        <ele>190.1080000</ele>
        <time>2009-07-19T08:00:22Z</time>
      </trkpt>
      <trkpt lat="45.5548660" lon="8.8479050">
        <ele>190.5230000</ele>
        <time>2009-07-19T08:00:27Z</time>
      </trkpt>
      <trkpt lat="45.5549450" lon="8.8478350">
        <ele>190.3650000</ele>
        <time>2009-07-19T08:00:31Z</time>
      </trkpt>
      <trkpt lat="45.5549760" lon="8.8478260">
        <ele>190.2460000</ele>
        <time>2009-07-19T08:00:32Z</time>
      </trkpt>
      <trkpt lat="45.5550510" lon="8.8478050">
        <ele>191.3490000</ele>
        <time>2009-07-19T08:00:36Z</time>
      </trkpt>
      <trkpt lat="45.5551040" lon="8.8477570">
        <ele>191.3770000</ele>
        <time>2009-07-19T08:00:41Z</time>
      </trkpt>
      <trkpt lat="45.5551330" lon="8.8476620">
        <ele>190.8760000</ele>
        <time>2009-07-19T08:00:46Z</time>
      </trkpt>
      <trkpt lat="45.5551900" lon="8.8475990">
        <ele>190.9500000</ele>
        <time>2009-07-19T08:00:49Z</time>
      </trkpt>
      <trkpt lat="45.5552330" lon="8.8476030">
        <ele>191.4750000</ele>
        <time>2009-07-19T08:00:53Z</time>
      </trkpt>
      <trkpt lat="45.5553140" lon="8.8474960">
        <ele>191.0550000</ele>
        <time>2009-07-19T08:00:58Z</time>
      </trkpt>
      <trkpt lat="45.5552850" lon="8.8473170">
        <ele>190.5060000</ele>
        <time>2009-07-19T08:01:02Z</time>
      </trkpt>
      <trkpt lat="45.5553330" lon="8.8471990">
        <ele>190.5940000</ele>
        <time>2009-07-19T08:01:05Z</time>
      </trkpt>
      <trkpt lat="45.5553620" lon="8.8471730">
        <ele>190.6160000</ele>
        <time>2009-07-19T08:01:06Z</time>
      </trkpt>
      <trkpt lat="45.5555310" lon="8.8470440">
        <ele>190.9140000</ele>
        <time>2009-07-19T08:01:11Z</time>
      </trkpt>
      <trkpt lat="45.5555850" lon="8.8469850">
        <ele>191.1000000</ele>
        <time>2009-07-19T08:01:13Z</time>
      </trkpt>
      <trkpt lat="45.5556880" lon="8.8469200">
        <ele>191.1600000</ele>
        <time>2009-07-19T08:01:17Z</time>
      </trkpt>
      <trkpt lat="45.5558260" lon="8.8468410">
        <ele>191.2140000</ele>
        <time>2009-07-19T08:01:22Z</time>
      </trkpt>
      <trkpt lat="45.5558860" lon="8.8468420">
        <ele>191.1620000</ele>
        <time>2009-07-19T08:01:24Z</time>
      </trkpt>
      <trkpt lat="45.5559390" lon="8.8469820">
        <ele>191.1360000</ele>
        <time>2009-07-19T08:01:29Z</time>
      </trkpt>
      <trkpt lat="45.5560090" lon="8.8470270">
        <ele>191.1710000</ele>
        <time>2009-07-19T08:01:32Z</time>
      </trkpt>
      <trkpt lat="45.5561250" lon="8.8470180">
        <ele>191.1030000</ele>
        <time>2009-07-19T08:01:36Z</time>
      </trkpt>
      <trkpt lat="45.5562440" lon="8.8469650">
        <ele>191.3630000</ele>
        <time>2009-07-19T08:01:40Z</time>
      </trkpt>
      <trkpt lat="45.5563020" lon="8.8469550">
        <ele>192.2650000</ele>
        <time>2009-07-19T08:01:43Z</time>
      </trkpt>
      <trkpt lat="45.5563340" lon="8.8469750">
        <ele>192.1020000</ele>
        <time>2009-07-19T08:01:45Z</time>
      </trkpt>
      <trkpt lat="45.5563800" lon="8.8470690">
        <ele>191.0150000</ele>
        <time>2009-07-19T08:01:47Z</time>
      </trkpt>
      <trkpt lat="45.5565090" lon="8.8473850">
        <ele>191.0750000</ele>
        <time>2009-07-19T08:01:52Z</time>
      </trkpt>
      <trkpt lat="45.5566350" lon="8.8476520">
        <ele>191.2160000</ele>
        <time>2009-07-19T08:01:56Z</time>
      </trkpt>
      <trkpt lat="45.5567420" lon="8.8477070">
        <ele>191.2230000</ele>
        <time>2009-07-19T08:01:59Z</time>
      </trkpt>
      <trkpt lat="45.5567790" lon="8.8476710">
        <ele>191.1010000</ele>
        <time>2009-07-19T08:02:00Z</time>
      </trkpt>
      <trkpt lat="45.5568950" lon="8.8475500">
        <ele>191.0670000</ele>
        <time>2009-07-19T08:02:03Z</time>
      </trkpt>
      <trkpt lat="45.5573340" lon="8.8471560">
        <ele>191.3200000</ele>
        <time>2009-07-19T08:02:13Z</time>
      </trkpt>
      <trkpt lat="45.5577370" lon="8.8467990">
        <ele>191.9460000</ele>
        <time>2009-07-19T08:02:22Z</time>
      </trkpt>
      <trkpt lat="45.5580620" lon="8.8465200">
        <ele>191.4820000</ele>
        <time>2009-07-19T08:02:29Z</time>
      </trkpt>
      <trkpt lat="45.5584940" lon="8.8461750">
        <ele>192.0280000</ele>
        <time>2009-07-19T08:02:38Z</time>
      </trkpt>
      <trkpt lat="45.5589130" lon="8.8459360">
        <ele>192.0360000</ele>
        <time>2009-07-19T08:02:46Z</time>
      </trkpt>
      <trkpt lat="45.5593830" lon="8.8456620">
        <ele>192.3310000</ele>
        <time>2009-07-19T08:02:55Z</time>
      </trkpt>
      <trkpt lat="45.5598360" lon="8.8454020">
        <ele>192.2430000</ele>
        <time>2009-07-19T08:03:04Z</time>
      </trkpt>
      <trkpt lat="45.5600250" lon="8.8454620">
        <ele>192.3770000</ele>
        <time>2009-07-19T08:03:08Z</time>
      </trkpt>
      <trkpt lat="45.5600620" lon="8.8455140">
        <ele>192.3170000</ele>
        <time>2009-07-19T08:03:09Z</time>
      </trkpt>
      <trkpt lat="45.5602650" lon="8.8456620">
        <ele>192.4600000</ele>
        <time>2009-07-19T08:03:14Z</time>
      </trkpt>
      <trkpt lat="45.5603490" lon="8.8455720">
        <ele>192.3390000</ele>
        <time>2009-07-19T08:03:16Z</time>
      </trkpt>
      <trkpt lat="45.5604310" lon="8.8454650">
        <ele>192.4530000</ele>
        <time>2009-07-19T08:03:18Z</time>
      </trkpt>
      <trkpt lat="45.5605150" lon="8.8452200">
        <ele>192.4030000</ele>
        <time>2009-07-19T08:03:22Z</time>
      </trkpt>
      <trkpt lat="45.5606040" lon="8.8448540">
        <ele>192.5780000</ele>
        <time>2009-07-19T08:03:27Z</time>
      </trkpt>
      <trkpt lat="45.5607590" lon="8.8447960">
        <ele>192.6460000</ele>
        <time>2009-07-19T08:03:30Z</time>
      </trkpt>
      <trkpt lat="45.5609590" lon="8.8449590">
        <ele>192.8900000</ele>
        <time>2009-07-19T08:03:34Z</time>
      </trkpt>
      <trkpt lat="45.5611540" lon="8.8449420">
        <ele>192.6510000</ele>
        <time>2009-07-19T08:03:38Z</time>
      </trkpt>
      <trkpt lat="45.5612650" lon="8.8448520">
        <ele>192.9530000</ele>
        <time>2009-07-19T08:03:40Z</time>
      </trkpt>
      <trkpt lat="45.5614240" lon="8.8447210">
        <ele>193.0160000</ele>
        <time>2009-07-19T08:03:43Z</time>
      </trkpt>
      <trkpt lat="45.5616520" lon="8.8447210">
        <ele>192.9160000</ele>
        <time>2009-07-19T08:03:47Z</time>
      </trkpt>
      <trkpt lat="45.5617390" lon="8.8449160">
        <ele>192.8560000</ele>
        <time>2009-07-19T08:03:50Z</time>
      </trkpt>
      <trkpt lat="45.5619010" lon="8.8451400">
        <ele>192.9870000</ele>
        <time>2009-07-19T08:03:54Z</time>
      </trkpt>
      <trkpt lat="45.5620940" lon="8.8452410">
        <ele>193.1900000</ele>
        <time>2009-07-19T08:03:58Z</time>
      </trkpt>
      <trkpt lat="45.5621430" lon="8.8452840">
        <ele>193.2790000</ele>
        <time>2009-07-19T08:03:59Z</time>
      </trkpt>
      <trkpt lat="45.5623750" lon="8.8455200">
        <ele>193.4170000</ele>
        <time>2009-07-19T08:04:04Z</time>
      </trkpt>
      <trkpt lat="45.5627250" lon="8.8459520">
        <ele>193.4610000</ele>
        <time>2009-07-19T08:04:12Z</time>
      </trkpt>
      <trkpt lat="45.5628080" lon="8.8460570">
        <ele>193.7390000</ele>
        <time>2009-07-19T08:04:14Z</time>
      </trkpt>
      <trkpt lat="45.5629660" lon="8.8463880">
        <ele>193.7690000</ele>
        <time>2009-07-19T08:04:19Z</time>
      </trkpt>
      <trkpt lat="45.5630610" lon="8.8467100">
        <ele>193.5280000</ele>
        <time>2009-07-19T08:04:23Z</time>
      </trkpt>
      <trkpt lat="45.5631680" lon="8.8468630">
        <ele>193.6920000</ele>
        <time>2009-07-19T08:04:26Z</time>
      </trkpt>
      <trkpt lat="45.5632560" lon="8.8468140">
        <ele>194.0240000</ele>
        <time>2009-07-19T08:04:28Z</time>
      </trkpt>
      <trkpt lat="45.5634920" lon="8.8466420">
        <ele>194.0140000</ele>
        <time>2009-07-19T08:04:33Z</time>
      </trkpt>
      <trkpt lat="45.5640490" lon="8.8462610">
        <ele>194.2580000</ele>
        <time>2009-07-19T08:04:45Z</time>
      </trkpt>
      <trkpt lat="45.5643160" lon="8.8460840">
        <ele>194.5500000</ele>
        <time>2009-07-19T08:04:51Z</time>
      </trkpt>
      <trkpt lat="45.5644080" lon="8.8459030">
        <ele>194.8380000</ele>
        <time>2009-07-19T08:04:55Z</time>
      </trkpt>
      <trkpt lat="45.5644440" lon="8.8458020">
        <ele>194.6090000</ele>
        <time>2009-07-19T08:04:57Z</time>
      </trkpt>
      <trkpt lat="45.5644800" lon="8.8456930">
        <ele>194.9840000</ele>
        <time>2009-07-19T08:04:59Z</time>
      </trkpt>
      <trkpt lat="45.5646200" lon="8.8455850">
        <ele>195.2170000</ele>
        <time>2009-07-19T08:05:04Z</time>
      </trkpt>
      <trkpt lat="45.5647560" lon="8.8455640">
        <ele>194.7800000</ele>
        <time>2009-07-19T08:05:08Z</time>
      </trkpt>
      <trkpt lat="45.5648080" lon="8.8454930">
        <ele>194.8010000</ele>
        <time>2009-07-19T08:05:11Z</time>
      </trkpt>
      <trkpt lat="45.5648770" lon="8.8454460">
        <ele>194.6850000</ele>
        <time>2009-07-19T08:05:15Z</time>
      </trkpt>
      <trkpt lat="45.5648340" lon="8.8453330">
        <ele>194.6500000</ele>
        <time>2009-07-19T08:05:19Z</time>
      </trkpt>
      <trkpt lat="45.5648280" lon="8.8453020">
        <ele>194.7300000</ele>
        <time>2009-07-19T08:05:20Z</time>
      </trkpt>
      <trkpt lat="45.5648290" lon="8.8451330">
        <ele>194.6070000</ele>
        <time>2009-07-19T08:05:25Z</time>
      </trkpt>
      <trkpt lat="45.5648260" lon="8.8450970">
        <ele>194.6290000</ele>
        <time>2009-07-19T08:05:26Z</time>
      </trkpt>
      <trkpt lat="45.5647800" lon="8.8449310">
        <ele>194.3560000</ele>
        <time>2009-07-19T08:05:30Z</time>
      </trkpt>
      <trkpt lat="45.5646580" lon="8.8447340">
        <ele>194.4080000</ele>
        <time>2009-07-19T08:05:35Z</time>
      </trkpt>
      <trkpt lat="45.5645520" lon="8.8446740">
        <ele>194.3110000</ele>
        <time>2009-07-19T08:05:38Z</time>
      </trkpt>
      <trkpt lat="45.5644890" lon="8.8445090">
        <ele>194.2420000</ele>
        <time>2009-07-19T08:05:43Z</time>
      </trkpt>
      <trkpt lat="45.5645250" lon="8.8443350">
        <ele>194.0300000</ele>
        <time>2009-07-19T08:05:47Z</time>
      </trkpt>
      <trkpt lat="45.5645450" lon="8.8441980">
        <ele>193.9400000</ele>
        <time>2009-07-19T08:05:50Z</time>
      </trkpt>
      <trkpt lat="45.5645430" lon="8.8440470">
        <ele>194.0210000</ele>
        <time>2009-07-19T08:05:55Z</time>
      </trkpt>
      <trkpt lat="45.5644530" lon="8.8439810">
        <ele>193.8210000</ele>
        <time>2009-07-19T08:05:58Z</time>
      </trkpt>
      <trkpt lat="45.5644140" lon="8.8438970">
        <ele>193.7310000</ele>
        <time>2009-07-19T08:06:00Z</time>
      </trkpt>
      <trkpt lat="45.5643790" lon="8.8438150">
        <ele>193.7400000</ele>
        <time>2009-07-19T08:06:02Z</time>
      </trkpt>
      <trkpt lat="45.5644120" lon="8.8437210">
        <ele>193.6840000</ele>
        <time>2009-07-19T08:06:06Z</time>
      </trkpt>
      <trkpt lat="45.5644620" lon="8.8436260">
        <ele>193.5030000</ele>
        <time>2009-07-19T08:06:10Z</time>
      </trkpt>
      <trkpt lat="45.5644440" lon="8.8434460">
        <ele>193.5830000</ele>
        <time>2009-07-19T08:06:14Z</time>
      </trkpt>
      <trkpt lat="45.5644110" lon="8.8429410">
        <ele>193.6230000</ele>
        <time>2009-07-19T08:06:21Z</time>
      </trkpt>
      <trkpt lat="45.5644240" lon="8.8425910">
        <ele>193.6690000</ele>
        <time>2009-07-19T08:06:26Z</time>
      </trkpt>
      <trkpt lat="45.5644900" lon="8.8423630">
        <ele>193.2800000</ele>
        <time>2009-07-19T08:06:30Z</time>
      </trkpt>
      <trkpt lat="45.5644480" lon="8.8422100">
        <ele>193.3660000</ele>
        <time>2009-07-19T08:06:33Z</time>
      </trkpt>
      <trkpt lat="45.5643710" lon="8.8420500">
        <ele>193.1320000</ele>
        <time>2009-07-19T08:06:36Z</time>
      </trkpt>
      <trkpt lat="45.5643350" lon="8.8418560">
        <ele>193.0060000</ele>
        <time>2009-07-19T08:06:39Z</time>
      </trkpt>
      <trkpt lat="45.5642860" lon="8.8417350">
        <ele>193.0820000</ele>
        <time>2009-07-19T08:06:41Z</time>
      </trkpt>
      <trkpt lat="45.5640640" lon="8.8412930">
        <ele>193.0530000</ele>
        <time>2009-07-19T08:06:48Z</time>
      </trkpt>
      <trkpt lat="45.5638910" lon="8.8408970">
        <ele>192.9360000</ele>
        <time>2009-07-19T08:06:54Z</time>
      </trkpt>
      <trkpt lat="45.5638250" lon="8.8407590">
        <ele>192.7470000</ele>
        <time>2009-07-19T08:06:56Z</time>
      </trkpt>
      <trkpt lat="45.5636930" lon="8.8404550">
        <ele>192.5190000</ele>
        <time>2009-07-19T08:07:00Z</time>
      </trkpt>
      <trkpt lat="45.5635720" lon="8.8403280">
        <ele>192.5930000</ele>
        <time>2009-07-19T08:07:03Z</time>
      </trkpt>
      <trkpt lat="45.5633760" lon="8.8405000">
        <ele>192.3350000</ele>
        <time>2009-07-19T08:07:08Z</time>
      </trkpt>
      <trkpt lat="45.5630680" lon="8.8407960">
        <ele>192.2420000</ele>
        <time>2009-07-19T08:07:14Z</time>
      </trkpt>
      <trkpt lat="45.5627680" lon="8.8410710">
        <ele>191.8050000</ele>
        <time>2009-07-19T08:07:19Z</time>
      </trkpt>
      <trkpt lat="45.5624770" lon="8.8413180">
        <ele>191.8630000</ele>
        <time>2009-07-19T08:07:24Z</time>
      </trkpt>
      <trkpt lat="45.5623470" lon="8.8414970">
        <ele>191.5730000</ele>
        <time>2009-07-19T08:07:27Z</time>
      </trkpt>
      <trkpt lat="45.5620200" lon="8.8417900">
        <ele>191.5100000</ele>
        <time>2009-07-19T08:07:33Z</time>
      </trkpt>
      <trkpt lat="45.5617270" lon="8.8420770">
        <ele>191.2110000</ele>
        <time>2009-07-19T08:07:38Z</time>
      </trkpt>
      <trkpt lat="45.5614590" lon="8.8421260">
        <ele>191.0220000</ele>
        <time>2009-07-19T08:07:42Z</time>
      </trkpt>
      <trkpt lat="45.5613270" lon="8.8417800">
        <ele>190.8080000</ele>
        <time>2009-07-19T08:07:47Z</time>
      </trkpt>
      <trkpt lat="45.5610930" lon="8.8413170">
        <ele>190.5550000</ele>
        <time>2009-07-19T08:07:53Z</time>
      </trkpt>
      <trkpt lat="45.5608820" lon="8.8409060">
        <ele>190.3660000</ele>
        <time>2009-07-19T08:07:58Z</time>
      </trkpt>
      <trkpt lat="45.5607310" lon="8.8404680">
        <ele>190.2040000</ele>
        <time>2009-07-19T08:08:03Z</time>
      </trkpt>
      <trkpt lat="45.5607080" lon="8.8403780">
        <ele>190.0200000</ele>
        <time>2009-07-19T08:08:04Z</time>
      </trkpt>
      <trkpt lat="45.5606710" lon="8.8401030">
        <ele>190.2890000</ele>
        <time>2009-07-19T08:08:07Z</time>
      </trkpt>
      <trkpt lat="45.5606820" lon="8.8396390">
        <ele>190.4000000</ele>
        <time>2009-07-19T08:08:12Z</time>
      </trkpt>
      <trkpt lat="45.5606760" lon="8.8394280">
        <ele>190.2000000</ele>
        <time>2009-07-19T08:08:15Z</time>
      </trkpt>
      <trkpt lat="45.5605170" lon="8.8393570">
        <ele>189.8060000</ele>
        <time>2009-07-19T08:08:19Z</time>
      </trkpt>
      <trkpt lat="45.5604170" lon="8.8393940">
        <ele>189.7500000</ele>
        <time>2009-07-19T08:08:21Z</time>
      </trkpt>
      <trkpt lat="45.5602260" lon="8.8394930">
        <ele>189.5840000</ele>
        <time>2009-07-19T08:08:25Z</time>
      </trkpt>
      <trkpt lat="45.5601000" lon="8.8396110">
        <ele>189.4880000</ele>
        <time>2009-07-19T08:08:28Z</time>
      </trkpt>
      <trkpt lat="45.5598020" lon="8.8399190">
        <ele>189.2020000</ele>
        <time>2009-07-19T08:08:33Z</time>
      </trkpt>
      <trkpt lat="45.5594030" lon="8.8402300">
        <ele>188.6690000</ele>
        <time>2009-07-19T08:08:38Z</time>
      </trkpt>
      <trkpt lat="45.5593380" lon="8.8402790">
        <ele>188.9020000</ele>
        <time>2009-07-19T08:08:39Z</time>
      </trkpt>
      <trkpt lat="45.5591300" lon="8.8404820">
        <ele>188.9270000</ele>
        <time>2009-07-19T08:08:43Z</time>
      </trkpt>
      <trkpt lat="45.5590170" lon="8.8404380">
        <ele>188.9110000</ele>
        <time>2009-07-19T08:08:47Z</time>
      </trkpt>
      <trkpt lat="45.5590350" lon="8.8402470">
        <ele>188.6510000</ele>
        <time>2009-07-19T08:08:50Z</time>
      </trkpt>
      <trkpt lat="45.5590600" lon="8.8400880">
        <ele>188.6880000</ele>
        <time>2009-07-19T08:08:53Z</time>
      </trkpt>
      <trkpt lat="45.5590240" lon="8.8398260">
        <ele>188.6850000</ele>
        <time>2009-07-19T08:08:57Z</time>
      </trkpt>
      <trkpt lat="45.5590040" lon="8.8397720">
        <ele>188.7030000</ele>
        <time>2009-07-19T08:08:58Z</time>
      </trkpt>
      <trkpt lat="45.5589930" lon="8.8395040">
        <ele>188.8220000</ele>
        <time>2009-07-19T08:09:03Z</time>
      </trkpt>
      <trkpt lat="45.5590280" lon="8.8393630">
        <ele>188.5440000</ele>
        <time>2009-07-19T08:09:06Z</time>
      </trkpt>
      <trkpt lat="45.5589550" lon="8.8392280">
        <ele>188.6310000</ele>
        <time>2009-07-19T08:09:10Z</time>
      </trkpt>
      <trkpt lat="45.5589250" lon="8.8391910">
        <ele>188.3020000</ele>
        <time>2009-07-19T08:09:11Z</time>
      </trkpt>
      <trkpt lat="45.5587290" lon="8.8389910">
        <ele>188.2860000</ele>
        <time>2009-07-19T08:09:16Z</time>
      </trkpt>
      <trkpt lat="45.5586460" lon="8.8389100">
        <ele>188.4280000</ele>
        <time>2009-07-19T08:09:18Z</time>
      </trkpt>
      <trkpt lat="45.5584460" lon="8.8387640">
        <ele>188.0750000</ele>
        <time>2009-07-19T08:09:23Z</time>
      </trkpt>
      <trkpt lat="45.5583770" lon="8.8387100">
        <ele>188.0850000</ele>
        <time>2009-07-19T08:09:25Z</time>
      </trkpt>
      <trkpt lat="45.5583680" lon="8.8384730">
        <ele>188.0280000</ele>
        <time>2009-07-19T08:09:30Z</time>
      </trkpt>
      <trkpt lat="45.5585310" lon="8.8380330">
        <ele>188.1590000</ele>
        <time>2009-07-19T08:09:37Z</time>
      </trkpt>
      <trkpt lat="45.5586670" lon="8.8376080">
        <ele>188.1200000</ele>
        <time>2009-07-19T08:09:43Z</time>
      </trkpt>
      <trkpt lat="45.5588160" lon="8.8373840">
        <ele>188.1530000</ele>
        <time>2009-07-19T08:09:47Z</time>
      </trkpt>
      <trkpt lat="45.5588880" lon="8.8372100">
        <ele>188.4160000</ele>
        <time>2009-07-19T08:09:50Z</time>
      </trkpt>
      <trkpt lat="45.5588300" lon="8.8369020">
        <ele>188.2060000</ele>
        <time>2009-07-19T08:09:54Z</time>
      </trkpt>
      <trkpt lat="45.5588000" lon="8.8366520">
        <ele>188.2460000</ele>
        <time>2009-07-19T08:09:57Z</time>
      </trkpt>
      <trkpt lat="45.5587560" lon="8.8360940">
        <ele>188.2860000</ele>
        <time>2009-07-19T08:10:04Z</time>
      </trkpt>
      <trkpt lat="45.5586930" lon="8.8358760">
        <ele>188.3080000</ele>
        <time>2009-07-19T08:10:07Z</time>
      </trkpt>
      <trkpt lat="45.5583570" lon="8.8352560">
        <ele>187.9860000</ele>
        <time>2009-07-19T08:10:17Z</time>
      </trkpt>
      <trkpt lat="45.5581100" lon="8.8348280">
        <ele>187.6880000</ele>
        <time>2009-07-19T08:10:24Z</time>
      </trkpt>
      <trkpt lat="45.5580330" lon="8.8347170">
        <ele>187.4260000</ele>
        <time>2009-07-19T08:10:26Z</time>
      </trkpt>
      <trkpt lat="45.5578710" lon="8.8343020">
        <ele>187.3470000</ele>
        <time>2009-07-19T08:10:32Z</time>
      </trkpt>
      <trkpt lat="45.5577480" lon="8.8338640">
        <ele>186.9920000</ele>
        <time>2009-07-19T08:10:38Z</time>
      </trkpt>
      <trkpt lat="45.5576820" lon="8.8336810">
        <ele>187.1330000</ele>
        <time>2009-07-19T08:10:41Z</time>
      </trkpt>
      <trkpt lat="45.5575440" lon="8.8334940">
        <ele>187.1440000</ele>
        <time>2009-07-19T08:10:45Z</time>
      </trkpt>
      <trkpt lat="45.5572590" lon="8.8332780">
        <ele>186.4200000</ele>
        <time>2009-07-19T08:10:51Z</time>
      </trkpt>
      <trkpt lat="45.5571220" lon="8.8331100">
        <ele>186.4050000</ele>
        <time>2009-07-19T08:10:56Z</time>
      </trkpt>
      <trkpt lat="45.5570520" lon="8.8329440">
        <ele>186.4720000</ele>
        <time>2009-07-19T08:11:00Z</time>
      </trkpt>
      <trkpt lat="45.5570880" lon="8.8328120">
        <ele>186.3750000</ele>
        <time>2009-07-19T08:11:04Z</time>
      </trkpt>
      <trkpt lat="45.5571360" lon="8.8327000">
        <ele>186.5650000</ele>
        <time>2009-07-19T08:11:07Z</time>
      </trkpt>
      <trkpt lat="45.5571850" lon="8.8326610">
        <ele>186.4260000</ele>
        <time>2009-07-19T08:11:10Z</time>
      </trkpt>
      <trkpt lat="45.5572360" lon="8.8325840">
        <ele>186.2380000</ele>
        <time>2009-07-19T08:11:13Z</time>
      </trkpt>
      <trkpt lat="45.5573090" lon="8.8326260">
        <ele>186.4310000</ele>
        <time>2009-07-19T08:11:15Z</time>
      </trkpt>
      <trkpt lat="45.5575410" lon="8.8327860">
        <ele>186.6520000</ele>
        <time>2009-07-19T08:11:21Z</time>
      </trkpt>
      <trkpt lat="45.5577610" lon="8.8328560">
        <ele>186.8450000</ele>
        <time>2009-07-19T08:11:26Z</time>
      </trkpt>
      <trkpt lat="45.5580920" lon="8.8329510">
        <ele>186.4600000</ele>
        <time>2009-07-19T08:11:33Z</time>
      </trkpt>
      <trkpt lat="45.5583820" lon="8.8328560">
        <ele>186.8560000</ele>
        <time>2009-07-19T08:11:39Z</time>
      </trkpt>
      <trkpt lat="45.5586490" lon="8.8326490">
        <ele>186.6600000</ele>
        <time>2009-07-19T08:11:45Z</time>
      </trkpt>
      <trkpt lat="45.5589770" lon="8.8323840">
        <ele>186.6430000</ele>
        <time>2009-07-19T08:11:52Z</time>
      </trkpt>
      <trkpt lat="45.5591670" lon="8.8322600">
        <ele>187.0450000</ele>
        <time>2009-07-19T08:11:57Z</time>
      </trkpt>
      <trkpt lat="45.5592610" lon="8.8322420">
        <ele>187.1380000</ele>
        <time>2009-07-19T08:12:01Z</time>
      </trkpt>
      <trkpt lat="45.5592350" lon="8.8321180">
        <ele>185.5690000</ele>
        <time>2009-07-19T08:12:04Z</time>
      </trkpt>
      <trkpt lat="45.5590290" lon="8.8320970">
        <ele>181.8860000</ele>
        <time>2009-07-19T08:12:07Z</time>
      </trkpt>
      <trkpt lat="45.5587550" lon="8.8321930">
        <ele>179.5350000</ele>
        <time>2009-07-19T08:12:10Z</time>
      </trkpt>
      <trkpt lat="45.5586690" lon="8.8322530">
        <ele>179.0090000</ele>
        <time>2009-07-19T08:12:11Z</time>
      </trkpt>
      <trkpt lat="45.5583590" lon="8.8325110">
        <ele>177.8600000</ele>
        <time>2009-07-19T08:12:15Z</time>
      </trkpt>
      <trkpt lat="45.5580140" lon="8.8325610">
        <ele>176.6680000</ele>
        <time>2009-07-19T08:12:19Z</time>
      </trkpt>
      <trkpt lat="45.5579290" lon="8.8325350">
        <ele>176.0260000</ele>
        <time>2009-07-19T08:12:20Z</time>
      </trkpt>
      <trkpt lat="45.5576880" lon="8.8324190">
        <ele>175.2610000</ele>
        <time>2009-07-19T08:12:23Z</time>
      </trkpt>
      <trkpt lat="45.5575830" lon="8.8321290">
        <ele>173.8020000</ele>
        <time>2009-07-19T08:12:27Z</time>
      </trkpt>
      <trkpt lat="45.5575980" lon="8.8320390">
        <ele>173.4130000</ele>
        <time>2009-07-19T08:12:28Z</time>
      </trkpt>
      <trkpt lat="45.5576940" lon="8.8317330">
        <ele>171.3240000</ele>
        <time>2009-07-19T08:12:31Z</time>
      </trkpt>
      <trkpt lat="45.5577660" lon="8.8315040">
        <ele>170.5390000</ele>
        <time>2009-07-19T08:12:33Z</time>
      </trkpt>
      <trkpt lat="45.5579250" lon="8.8309490">
        <ele>169.9540000</ele>
        <time>2009-07-19T08:12:38Z</time>
      </trkpt>
      <trkpt lat="45.5580640" lon="8.8304620">
        <ele>167.1540000</ele>
        <time>2009-07-19T08:12:42Z</time>
      </trkpt>
      <trkpt lat="45.5583640" lon="8.8297310">
        <ele>165.3720000</ele>
        <time>2009-07-19T08:12:48Z</time>
      </trkpt>
      <trkpt lat="45.5584610" lon="8.8294430">
        <ele>164.7870000</ele>
        <time>2009-07-19T08:12:51Z</time>
      </trkpt>
      <trkpt lat="45.5584100" lon="8.8292710">
        <ele>164.5240000</ele>
        <time>2009-07-19T08:12:55Z</time>
      </trkpt>
      <trkpt lat="45.5583280" lon="8.8292630">
        <ele>164.5500000</ele>
        <time>2009-07-19T08:12:57Z</time>
      </trkpt>
      <trkpt lat="45.5580190" lon="8.8292680">
        <ele>166.8240000</ele>
        <time>2009-07-19T08:13:04Z</time>
      </trkpt>
      <trkpt lat="45.5578390" lon="8.8292770">
        <ele>169.4270000</ele>
        <time>2009-07-19T08:13:09Z</time>
      </trkpt>
      <trkpt lat="45.5576490" lon="8.8294020">
        <ele>170.8260000</ele>
        <time>2009-07-19T08:13:15Z</time>
      </trkpt>
      <trkpt lat="45.5574870" lon="8.8295060">
        <ele>172.0730000</ele>
        <time>2009-07-19T08:13:21Z</time>
      </trkpt>
      <trkpt lat="45.5573150" lon="8.8295210">
        <ele>174.1430000</ele>
        <time>2009-07-19T08:13:28Z</time>
      </trkpt>
      <trkpt lat="45.5571580" lon="8.8295140">
        <ele>176.5250000</ele>
        <time>2009-07-19T08:13:35Z</time>
      </trkpt>
      <trkpt lat="45.5569550" lon="8.8294750">
        <ele>179.9430000</ele>
        <time>2009-07-19T08:13:45Z</time>
      </trkpt>
      <trkpt lat="45.5568390" lon="8.8294620">
        <ele>181.4650000</ele>
        <time>2009-07-19T08:13:51Z</time>
      </trkpt>
      <trkpt lat="45.5567100" lon="8.8294830">
        <ele>181.7350000</ele>
        <time>2009-07-19T08:13:57Z</time>
      </trkpt>
      <trkpt lat="45.5566020" lon="8.8295050">
        <ele>181.9980000</ele>
        <time>2009-07-19T08:14:01Z</time>
      </trkpt>
      <trkpt lat="45.5565330" lon="8.8297490">
        <ele>181.7150000</ele>
        <time>2009-07-19T08:14:07Z</time>
      </trkpt>
      <trkpt lat="45.5564810" lon="8.8301700">
        <ele>182.1800000</ele>
        <time>2009-07-19T08:14:16Z</time>
      </trkpt>
      <trkpt lat="45.5565000" lon="8.8302630">
        <ele>182.3170000</ele>
        <time>2009-07-19T08:14:18Z</time>
      </trkpt>
      <trkpt lat="45.5566260" lon="8.8303780">
        <ele>181.9540000</ele>
        <time>2009-07-19T08:14:22Z</time>
      </trkpt>
      <trkpt lat="45.5568370" lon="8.8304480">
        <ele>181.4010000</ele>
        <time>2009-07-19T08:14:27Z</time>
      </trkpt>
      <trkpt lat="45.5569530" lon="8.8305640">
        <ele>180.7960000</ele>
        <time>2009-07-19T08:14:31Z</time>
      </trkpt>
      <trkpt lat="45.5569600" lon="8.8306000">
        <ele>180.9570000</ele>
        <time>2009-07-19T08:14:35Z</time>
      </trkpt>
      <trkpt lat="45.5569720" lon="8.8306830">
        <ele>181.8530000</ele>
        <time>2009-07-19T08:14:42Z</time>
      </trkpt>
      <trkpt lat="45.5569730" lon="8.8307290">
        <ele>182.9150000</ele>
        <time>2009-07-19T08:14:50Z</time>
      </trkpt>
      <trkpt lat="45.5569950" lon="8.8307920">
        <ele>184.9700000</ele>
        <time>2009-07-19T08:14:58Z</time>
      </trkpt>
      <trkpt lat="45.5570110" lon="8.8308280">
        <ele>185.6160000</ele>
        <time>2009-07-19T08:15:01Z</time>
      </trkpt>
      <trkpt lat="45.5571200" lon="8.8308740">
        <ele>185.8400000</ele>
        <time>2009-07-19T08:15:08Z</time>
      </trkpt>
      <trkpt lat="45.5572910" lon="8.8309150">
        <ele>185.7220000</ele>
        <time>2009-07-19T08:15:14Z</time>
      </trkpt>
      <trkpt lat="45.5575570" lon="8.8309740">
        <ele>186.0000000</ele>
        <time>2009-07-19T08:15:22Z</time>
      </trkpt>
      <trkpt lat="45.5576190" lon="8.8311200">
        <ele>185.9830000</ele>
        <time>2009-07-19T08:15:26Z</time>
      </trkpt>
      <trkpt lat="45.5575880" lon="8.8312430">
        <ele>185.7370000</ele>
        <time>2009-07-19T08:15:29Z</time>
      </trkpt>
      <trkpt lat="45.5575050" lon="8.8315960">
        <ele>186.0130000</ele>
        <time>2009-07-19T08:15:36Z</time>
      </trkpt>
      <trkpt lat="45.5574140" lon="8.8319540">
        <ele>186.2400000</ele>
        <time>2009-07-19T08:15:41Z</time>
      </trkpt>
      <trkpt lat="45.5573740" lon="8.8321100">
        <ele>186.0320000</ele>
        <time>2009-07-19T08:15:43Z</time>
      </trkpt>
      <trkpt lat="45.5573490" lon="8.8323230">
        <ele>186.3820000</ele>
        <time>2009-07-19T08:15:46Z</time>
      </trkpt>
      <trkpt lat="45.5572650" lon="8.8325440">
        <ele>186.1120000</ele>
        <time>2009-07-19T08:15:50Z</time>
      </trkpt>
      <trkpt lat="45.5571700" lon="8.8325720">
        <ele>185.9620000</ele>
        <time>2009-07-19T08:15:53Z</time>
      </trkpt>
      <trkpt lat="45.5571430" lon="8.8325510">
        <ele>185.9710000</ele>
        <time>2009-07-19T08:15:54Z</time>
      </trkpt>
      <trkpt lat="45.5569620" lon="8.8324240">
        <ele>185.8100000</ele>
        <time>2009-07-19T08:15:59Z</time>
      </trkpt>
      <trkpt lat="45.5567360" lon="8.8322940">
        <ele>185.5840000</ele>
        <time>2009-07-19T08:16:04Z</time>
      </trkpt>
      <trkpt lat="45.5566840" lon="8.8322570">
        <ele>185.5880000</ele>
        <time>2009-07-19T08:16:05Z</time>
      </trkpt>
      <trkpt lat="45.5565050" lon="8.8321610">
        <ele>185.6060000</ele>
        <time>2009-07-19T08:16:08Z</time>
      </trkpt>
      <trkpt lat="45.5563290" lon="8.8319210">
        <ele>185.5430000</ele>
        <time>2009-07-19T08:16:12Z</time>
      </trkpt>
      <trkpt lat="45.5563050" lon="8.8318420">
        <ele>185.4260000</ele>
        <time>2009-07-19T08:16:13Z</time>
      </trkpt>
      <trkpt lat="45.5562560" lon="8.8316670">
        <ele>185.2940000</ele>
        <time>2009-07-19T08:16:15Z</time>
      </trkpt>
      <trkpt lat="45.5561890" lon="8.8314800">
        <ele>185.2170000</ele>
        <time>2009-07-19T08:16:17Z</time>
      </trkpt>
      <trkpt lat="45.5559340" lon="8.8312580">
        <ele>185.2560000</ele>
        <time>2009-07-19T08:16:22Z</time>
      </trkpt>
      <trkpt lat="45.5558190" lon="8.8312100">
        <ele>185.1730000</ele>
        <time>2009-07-19T08:16:24Z</time>
      </trkpt>
      <trkpt lat="45.5556530" lon="8.8310890">
        <ele>185.1680000</ele>
        <time>2009-07-19T08:16:27Z</time>
      </trkpt>
      <trkpt lat="45.5554820" lon="8.8310870">
        <ele>185.2120000</ele>
        <time>2009-07-19T08:16:31Z</time>
      </trkpt>
      <trkpt lat="45.5554650" lon="8.8312090">
        <ele>185.0750000</ele>
        <time>2009-07-19T08:16:33Z</time>
      </trkpt>
      <trkpt lat="45.5554250" lon="8.8314610">
        <ele>184.9690000</ele>
        <time>2009-07-19T08:16:37Z</time>
      </trkpt>
      <trkpt lat="45.5553770" lon="8.8316850">
        <ele>185.0770000</ele>
        <time>2009-07-19T08:16:40Z</time>
      </trkpt>
      <trkpt lat="45.5552920" lon="8.8321870">
        <ele>184.8400000</ele>
        <time>2009-07-19T08:16:46Z</time>
      </trkpt>
      <trkpt lat="45.5552360" lon="8.8326390">
        <ele>184.7040000</ele>
        <time>2009-07-19T08:16:51Z</time>
      </trkpt>
      <trkpt lat="45.5552130" lon="8.8330640">
        <ele>185.1600000</ele>
        <time>2009-07-19T08:16:56Z</time>
      </trkpt>
      <trkpt lat="45.5552020" lon="8.8333960">
        <ele>184.9700000</ele>
        <time>2009-07-19T08:17:00Z</time>
      </trkpt>
      <trkpt lat="45.5551750" lon="8.8337500">
        <ele>184.8760000</ele>
        <time>2009-07-19T08:17:04Z</time>
      </trkpt>
      <trkpt lat="45.5550810" lon="8.8341350">
        <ele>185.2360000</ele>
        <time>2009-07-19T08:17:09Z</time>
      </trkpt>
      <trkpt lat="45.5549240" lon="8.8341930">
        <ele>184.6060000</ele>
        <time>2009-07-19T08:17:12Z</time>
      </trkpt>
      <trkpt lat="45.5545680" lon="8.8342950">
        <ele>184.7180000</ele>
        <time>2009-07-19T08:17:18Z</time>
      </trkpt>
      <trkpt lat="45.5543310" lon="8.8343020">
        <ele>184.2190000</ele>
        <time>2009-07-19T08:17:22Z</time>
      </trkpt>
      <trkpt lat="45.5541650" lon="8.8342830">
        <ele>184.1470000</ele>
        <time>2009-07-19T08:17:25Z</time>
      </trkpt>
      <trkpt lat="45.5538630" lon="8.8343850">
        <ele>183.8710000</ele>
        <time>2009-07-19T08:17:30Z</time>
      </trkpt>
      <trkpt lat="45.5536810" lon="8.8346080">
        <ele>183.7110000</ele>
        <time>2009-07-19T08:17:34Z</time>
      </trkpt>
      <trkpt lat="45.5537080" lon="8.8347920">
        <ele>183.7110000</ele>
        <time>2009-07-19T08:17:37Z</time>
      </trkpt>
      <trkpt lat="45.5537700" lon="8.8349080">
        <ele>184.0530000</ele>
        <time>2009-07-19T08:17:39Z</time>
      </trkpt>
      <trkpt lat="45.5539460" lon="8.8353390">
        <ele>184.1140000</ele>
        <time>2009-07-19T08:17:45Z</time>
      </trkpt>
      <trkpt lat="45.5540720" lon="8.8356190">
        <ele>184.1450000</ele>
        <time>2009-07-19T08:17:49Z</time>
      </trkpt>
      <trkpt lat="45.5541600" lon="8.8358300">
        <ele>184.2400000</ele>
        <time>2009-07-19T08:17:52Z</time>
      </trkpt>
      <trkpt lat="45.5544620" lon="8.8363840">
        <ele>184.5290000</ele>
        <time>2009-07-19T08:18:00Z</time>
      </trkpt>
      <trkpt lat="45.5547220" lon="8.8368050">
        <ele>184.9590000</ele>
        <time>2009-07-19T08:18:07Z</time>
      </trkpt>
      <trkpt lat="45.5550290" lon="8.8373710">
        <ele>185.3070000</ele>
        <time>2009-07-19T08:18:16Z</time>
      </trkpt>
      <trkpt lat="45.5552650" lon="8.8378280">
        <ele>185.4190000</ele>
        <time>2009-07-19T08:18:23Z</time>
      </trkpt>
      <trkpt lat="45.5555550" lon="8.8384150">
        <ele>185.6850000</ele>
        <time>2009-07-19T08:18:32Z</time>
      </trkpt>
      <trkpt lat="45.5557830" lon="8.8388410">
        <ele>186.0310000</ele>
        <time>2009-07-19T08:18:39Z</time>
      </trkpt>
      <trkpt lat="45.5559330" lon="8.8390650">
        <ele>186.0460000</ele>
        <time>2009-07-19T08:18:43Z</time>
      </trkpt>
      <trkpt lat="45.5561430" lon="8.8392150">
        <ele>185.9710000</ele>
        <time>2009-07-19T08:18:48Z</time>
      </trkpt>
      <trkpt lat="45.5562350" lon="8.8392450">
        <ele>186.1490000</ele>
        <time>2009-07-19T08:18:50Z</time>
      </trkpt>
      <trkpt lat="45.5563880" lon="8.8394330">
        <ele>186.3920000</ele>
        <time>2009-07-19T08:18:54Z</time>
      </trkpt>
      <trkpt lat="45.5566200" lon="8.8398460">
        <ele>186.3770000</ele>
        <time>2009-07-19T08:19:01Z</time>
      </trkpt>
      <trkpt lat="45.5567780" lon="8.8401540">
        <ele>186.5250000</ele>
        <time>2009-07-19T08:19:06Z</time>
      </trkpt>
      <trkpt lat="45.5570650" lon="8.8405310">
        <ele>186.5440000</ele>
        <time>2009-07-19T08:19:13Z</time>
      </trkpt>
      <trkpt lat="45.5573700" lon="8.8408680">
        <ele>187.0140000</ele>
        <time>2009-07-19T08:19:20Z</time>
      </trkpt>
      <trkpt lat="45.5575550" lon="8.8410560">
        <ele>187.0550000</ele>
        <time>2009-07-19T08:19:24Z</time>
      </trkpt>
      <trkpt lat="45.5577130" lon="8.8411470">
        <ele>187.1170000</ele>
        <time>2009-07-19T08:19:27Z</time>
      </trkpt>
      <trkpt lat="45.5580960" lon="8.8414180">
        <ele>187.3070000</ele>
        <time>2009-07-19T08:19:35Z</time>
      </trkpt>
      <trkpt lat="45.5581500" lon="8.8415340">
        <ele>187.6260000</ele>
        <time>2009-07-19T08:19:39Z</time>
      </trkpt>
      <trkpt lat="45.5580830" lon="8.8415810">
        <ele>187.6910000</ele>
        <time>2009-07-19T08:19:42Z</time>
      </trkpt>
      <trkpt lat="45.5580310" lon="8.8416120">
        <ele>187.7790000</ele>
        <time>2009-07-19T08:19:44Z</time>
      </trkpt>
      <trkpt lat="45.5577720" lon="8.8418070">
        <ele>187.5630000</ele>
        <time>2009-07-19T08:19:50Z</time>
      </trkpt>
      <trkpt lat="45.5575770" lon="8.8420690">
        <ele>187.0540000</ele>
        <time>2009-07-19T08:19:55Z</time>
      </trkpt>
      <trkpt lat="45.5574100" lon="8.8423140">
        <ele>186.7830000</ele>
        <time>2009-07-19T08:20:00Z</time>
      </trkpt>
      <trkpt lat="45.5573290" lon="8.8425150">
        <ele>187.0240000</ele>
        <time>2009-07-19T08:20:05Z</time>
      </trkpt>
      <trkpt lat="45.5573100" lon="8.8425500">
        <ele>187.0850000</ele>
        <time>2009-07-19T08:20:06Z</time>
      </trkpt>
      <trkpt lat="45.5571840" lon="8.8426330">
        <ele>186.9440000</ele>
        <time>2009-07-19T08:20:11Z</time>
      </trkpt>
      <trkpt lat="45.5571210" lon="8.8426710">
        <ele>186.8800000</ele>
        <time>2009-07-19T08:20:13Z</time>
      </trkpt>
      <trkpt lat="45.5568300" lon="8.8430250">
        <ele>186.9630000</ele>
        <time>2009-07-19T08:20:21Z</time>
      </trkpt>
      <trkpt lat="45.5567150" lon="8.8431560">
        <ele>186.9880000</ele>
        <time>2009-07-19T08:20:24Z</time>
      </trkpt>
      <trkpt lat="45.5566870" lon="8.8432760">
        <ele>188.4930000</ele>
        <time>2009-07-19T08:20:27Z</time>
      </trkpt>
      <trkpt lat="45.5566810" lon="8.8432980">
        <ele>188.3490000</ele>
        <time>2009-07-19T08:20:31Z</time>
      </trkpt>
      <trkpt lat="45.5565870" lon="8.8434000">
        <ele>186.7090000</ele>
        <time>2009-07-19T08:20:35Z</time>
      </trkpt>
      <trkpt lat="45.5563310" lon="8.8437060">
        <ele>186.6670000</ele>
        <time>2009-07-19T08:20:42Z</time>
      </trkpt>
      <trkpt lat="45.5561040" lon="8.8440080">
        <ele>186.5750000</ele>
        <time>2009-07-19T08:20:48Z</time>
      </trkpt>
      <trkpt lat="45.5557980" lon="8.8442720">
        <ele>186.6960000</ele>
        <time>2009-07-19T08:20:55Z</time>
      </trkpt>
      <trkpt lat="45.5557580" lon="8.8443080">
        <ele>186.6690000</ele>
        <time>2009-07-19T08:20:56Z</time>
      </trkpt>
      <trkpt lat="45.5556510" lon="8.8444940">
        <ele>186.8720000</ele>
        <time>2009-07-19T08:21:01Z</time>
      </trkpt>
      <trkpt lat="45.5555830" lon="8.8445340">
        <ele>186.7400000</ele>
        <time>2009-07-19T08:21:04Z</time>
      </trkpt>
      <trkpt lat="45.5555590" lon="8.8445540">
        <ele>186.6170000</ele>
        <time>2009-07-19T08:21:05Z</time>
      </trkpt>
      <trkpt lat="45.5554820" lon="8.8447710">
        <ele>186.8160000</ele>
        <time>2009-07-19T08:21:11Z</time>
      </trkpt>
      <trkpt lat="45.5555310" lon="8.8449110">
        <ele>187.4850000</ele>
        <time>2009-07-19T08:21:15Z</time>
      </trkpt>
      <trkpt lat="45.5555960" lon="8.8450300">
        <ele>187.4540000</ele>
        <time>2009-07-19T08:21:19Z</time>
      </trkpt>
      <trkpt lat="45.5556000" lon="8.8450660">
        <ele>187.1210000</ele>
        <time>2009-07-19T08:21:20Z</time>
      </trkpt>
      <trkpt lat="45.5556360" lon="8.8452880">
        <ele>186.8140000</ele>
        <time>2009-07-19T08:21:25Z</time>
      </trkpt>
      <trkpt lat="45.5557340" lon="8.8454940">
        <ele>186.8870000</ele>
        <time>2009-07-19T08:21:30Z</time>
      </trkpt>
      <trkpt lat="45.5558560" lon="8.8457640">
        <ele>186.9940000</ele>
        <time>2009-07-19T08:21:36Z</time>
      </trkpt>
      <trkpt lat="45.5559310" lon="8.8459320">
        <ele>187.1480000</ele>
        <time>2009-07-19T08:21:40Z</time>
      </trkpt>
      <trkpt lat="45.5559650" lon="8.8460120">
        <ele>187.1010000</ele>
        <time>2009-07-19T08:21:42Z</time>
      </trkpt>
      <trkpt lat="45.5559660" lon="8.8462390">
        <ele>187.2430000</ele>
        <time>2009-07-19T08:21:47Z</time>
      </trkpt>
      <trkpt lat="45.5558910" lon="8.8463680">
        <ele>187.1170000</ele>
        <time>2009-07-19T08:21:51Z</time>
      </trkpt>
      <trkpt lat="45.5558570" lon="8.8464000">
        <ele>187.1800000</ele>
        <time>2009-07-19T08:21:52Z</time>
      </trkpt>
      <trkpt lat="45.5556410" lon="8.8465980">
        <ele>187.0810000</ele>
        <time>2009-07-19T08:21:57Z</time>
      </trkpt>
      <trkpt lat="45.5553400" lon="8.8468550">
        <ele>186.5720000</ele>
        <time>2009-07-19T08:22:03Z</time>
      </trkpt>
      <trkpt lat="45.5550520" lon="8.8470790">
        <ele>186.6760000</ele>
        <time>2009-07-19T08:22:09Z</time>
      </trkpt>
      <trkpt lat="45.5548000" lon="8.8470770">
        <ele>186.3410000</ele>
        <time>2009-07-19T08:22:14Z</time>
      </trkpt>
      <trkpt lat="45.5547730" lon="8.8469560">
        <ele>186.6310000</ele>
        <time>2009-07-19T08:22:17Z</time>
      </trkpt>
      <trkpt lat="45.5547080" lon="8.8468360">
        <ele>186.3470000</ele>
        <time>2009-07-19T08:22:20Z</time>
      </trkpt>
      <trkpt lat="45.5546670" lon="8.8468070">
        <ele>186.4700000</ele>
        <time>2009-07-19T08:22:21Z</time>
      </trkpt>
      <trkpt lat="45.5545950" lon="8.8467490">
        <ele>186.4940000</ele>
        <time>2009-07-19T08:22:23Z</time>
      </trkpt>
      <trkpt lat="45.5545760" lon="8.8465560">
        <ele>186.3460000</ele>
        <time>2009-07-19T08:22:27Z</time>
      </trkpt>
      <trkpt lat="45.5544870" lon="8.8463790">
        <ele>186.4040000</ele>
        <time>2009-07-19T08:22:32Z</time>
      </trkpt>
      <trkpt lat="45.5543540" lon="8.8462800">
        <ele>186.2000000</ele>
        <time>2009-07-19T08:22:36Z</time>
      </trkpt>
      <trkpt lat="45.5543110" lon="8.8462880">
        <ele>185.9560000</ele>
        <time>2009-07-19T08:22:39Z</time>
      </trkpt>
      <trkpt lat="45.5542780" lon="8.8464060">
        <ele>186.0410000</ele>
        <time>2009-07-19T08:22:43Z</time>
      </trkpt>
      <trkpt lat="45.5542250" lon="8.8465030">
        <ele>186.0090000</ele>
        <time>2009-07-19T08:22:45Z</time>
      </trkpt>
      <trkpt lat="45.5541570" lon="8.8466050">
        <ele>186.0220000</ele>
        <time>2009-07-19T08:22:47Z</time>
      </trkpt>
      <trkpt lat="45.5540100" lon="8.8467410">
        <ele>185.9220000</ele>
        <time>2009-07-19T08:22:51Z</time>
      </trkpt>
      <trkpt lat="45.5539150" lon="8.8467520">
        <ele>185.6210000</ele>
        <time>2009-07-19T08:22:54Z</time>
      </trkpt>
      <trkpt lat="45.5538990" lon="8.8468510">
        <ele>185.7040000</ele>
        <time>2009-07-19T08:22:57Z</time>
      </trkpt>
      <trkpt lat="45.5538670" lon="8.8469870">
        <ele>185.6570000</ele>
        <time>2009-07-19T08:23:00Z</time>
      </trkpt>
      <trkpt lat="45.5538610" lon="8.8472050">
        <ele>185.7030000</ele>
        <time>2009-07-19T08:23:04Z</time>
      </trkpt>
      <trkpt lat="45.5538300" lon="8.8472520">
        <ele>185.7850000</ele>
        <time>2009-07-19T08:23:05Z</time>
      </trkpt>
      <trkpt lat="45.5535860" lon="8.8476540">
        <ele>185.4310000</ele>
        <time>2009-07-19T08:23:12Z</time>
      </trkpt>
      <trkpt lat="45.5533530" lon="8.8480210">
        <ele>184.8540000</ele>
        <time>2009-07-19T08:23:18Z</time>
      </trkpt>
      <trkpt lat="45.5530490" lon="8.8483880">
        <ele>184.5770000</ele>
        <time>2009-07-19T08:23:25Z</time>
      </trkpt>
      <trkpt lat="45.5526760" lon="8.8488780">
        <ele>184.4080000</ele>
        <time>2009-07-19T08:23:34Z</time>
      </trkpt>
      <trkpt lat="45.5525470" lon="8.8490400">
        <ele>184.1660000</ele>
        <time>2009-07-19T08:23:37Z</time>
      </trkpt>
      <trkpt lat="45.5524580" lon="8.8492470">
        <ele>184.4540000</ele>
        <time>2009-07-19T08:23:41Z</time>
      </trkpt>
      <trkpt lat="45.5524690" lon="8.8493680">
        <ele>184.6680000</ele>
        <time>2009-07-19T08:23:43Z</time>
      </trkpt>
      <trkpt lat="45.5525270" lon="8.8497170">
        <ele>184.9970000</ele>
        <time>2009-07-19T08:23:48Z</time>
      </trkpt>
      <trkpt lat="45.5526650" lon="8.8501140">
        <ele>184.8370000</ele>
        <time>2009-07-19T08:23:54Z</time>
      </trkpt>
      <trkpt lat="45.5525920" lon="8.8503200">
        <ele>184.8110000</ele>
        <time>2009-07-19T08:23:58Z</time>
      </trkpt>
      <trkpt lat="45.5523100" lon="8.8507660">
        <ele>184.9450000</ele>
        <time>2009-07-19T08:24:06Z</time>
      </trkpt>
      <trkpt lat="45.5519940" lon="8.8511880">
        <ele>184.6940000</ele>
        <time>2009-07-19T08:24:14Z</time>
      </trkpt>
      <trkpt lat="45.5517920" lon="8.8514450">
        <ele>184.5340000</ele>
        <time>2009-07-19T08:24:19Z</time>
      </trkpt>
      <trkpt lat="45.5517200" lon="8.8517020">
        <ele>184.5740000</ele>
        <time>2009-07-19T08:24:23Z</time>
      </trkpt>
      <trkpt lat="45.5518010" lon="8.8519460">
        <ele>184.7190000</ele>
        <time>2009-07-19T08:24:27Z</time>
      </trkpt>
      <trkpt lat="45.5520100" lon="8.8526340">
        <ele>185.1260000</ele>
        <time>2009-07-19T08:24:37Z</time>
      </trkpt>
      <trkpt lat="45.5522360" lon="8.8533880">
        <ele>184.9370000</ele>
        <time>2009-07-19T08:24:47Z</time>
      </trkpt>
      <trkpt lat="45.5523910" lon="8.8540750">
        <ele>185.0270000</ele>
        <time>2009-07-19T08:24:55Z</time>
      </trkpt>
      <trkpt lat="45.5524420" lon="8.8543600">
        <ele>184.8590000</ele>
        <time>2009-07-19T08:24:58Z</time>
      </trkpt>
      <trkpt lat="45.5526390" lon="8.8545620">
        <ele>184.8620000</ele>
        <time>2009-07-19T08:25:02Z</time>
      </trkpt>
      <trkpt lat="45.5527080" lon="8.8545760">
        <ele>184.9620000</ele>
        <time>2009-07-19T08:25:03Z</time>
      </trkpt>
      <trkpt lat="45.5533040" lon="8.8545260">
        <ele>185.3550000</ele>
        <time>2009-07-19T08:25:12Z</time>
      </trkpt>
      <trkpt lat="45.5534540" lon="8.8542790">
        <ele>185.7140000</ele>
        <time>2009-07-19T08:25:16Z</time>
      </trkpt>
      <trkpt lat="45.5534230" lon="8.8541040">
        <ele>185.7680000</ele>
        <time>2009-07-19T08:25:18Z</time>
      </trkpt>
      <trkpt lat="45.5533320" lon="8.8534360">
        <ele>185.9260000</ele>
        <time>2009-07-19T08:25:26Z</time>
      </trkpt>
      <trkpt lat="45.5533110" lon="8.8530750">
        <ele>185.7530000</ele>
        <time>2009-07-19T08:25:30Z</time>
      </trkpt>
      <trkpt lat="45.5532310" lon="8.8521480">
        <ele>185.8310000</ele>
        <time>2009-07-19T08:25:40Z</time>
      </trkpt>
      <trkpt lat="45.5531600" lon="8.8513580">
        <ele>186.0610000</ele>
        <time>2009-07-19T08:25:49Z</time>
      </trkpt>
      <trkpt lat="45.5531140" lon="8.8510320">
        <ele>185.8650000</ele>
        <time>2009-07-19T08:25:53Z</time>
      </trkpt>
      <trkpt lat="45.5529430" lon="8.8505050">
        <ele>185.5850000</ele>
        <time>2009-07-19T08:26:00Z</time>
      </trkpt>
      <trkpt lat="45.5529770" lon="8.8502470">
        <ele>185.2370000</ele>
        <time>2009-07-19T08:26:04Z</time>
      </trkpt>
      <trkpt lat="45.5531500" lon="8.8500670">
        <ele>185.0990000</ele>
        <time>2009-07-19T08:26:08Z</time>
      </trkpt>
      <trkpt lat="45.5532530" lon="8.8500100">
        <ele>185.0070000</ele>
        <time>2009-07-19T08:26:10Z</time>
      </trkpt>
      <trkpt lat="45.5533980" lon="8.8498280">
        <ele>185.5030000</ele>
        <time>2009-07-19T08:26:14Z</time>
      </trkpt>
      <trkpt lat="45.5533740" lon="8.8497000">
        <ele>185.3500000</ele>
        <time>2009-07-19T08:26:16Z</time>
      </trkpt>
      <trkpt lat="45.5533130" lon="8.8495000">
        <ele>185.3670000</ele>
        <time>2009-07-19T08:26:19Z</time>
      </trkpt>
      <trkpt lat="45.5533850" lon="8.8492970">
        <ele>185.2140000</ele>
        <time>2009-07-19T08:26:23Z</time>
      </trkpt>
      <trkpt lat="45.5537720" lon="8.8490070">
        <ele>185.3780000</ele>
        <time>2009-07-19T08:26:32Z</time>
      </trkpt>
      <trkpt lat="45.5539790" lon="8.8488360">
        <ele>185.0780000</ele>
        <time>2009-07-19T08:26:37Z</time>
      </trkpt>
      <trkpt lat="45.5542940" lon="8.8485660">
        <ele>185.6870000</ele>
        <time>2009-07-19T08:26:45Z</time>
      </trkpt>
      <trkpt lat="45.5543590" lon="8.8484830">
        <ele>185.6240000</ele>
        <time>2009-07-19T08:26:47Z</time>
      </trkpt>
      <trkpt lat="45.5544370" lon="8.8483230">
        <ele>185.6880000</ele>
        <time>2009-07-19T08:26:50Z</time>
      </trkpt>
      <trkpt lat="45.5545500" lon="8.8481100">
        <ele>185.5620000</ele>
        <time>2009-07-19T08:26:54Z</time>
      </trkpt>
      <trkpt lat="45.5546900" lon="8.8478230">
        <ele>186.0710000</ele>
        <time>2009-07-19T08:27:00Z</time>
      </trkpt>
      <trkpt lat="45.5547990" lon="8.8479160">
        <ele>186.1300000</ele>
        <time>2009-07-19T08:27:04Z</time>
      </trkpt>
      <trkpt lat="45.5549020" lon="8.8479090">
        <ele>186.2260000</ele>
        <time>2009-07-19T08:27:07Z</time>
      </trkpt>
      <trkpt lat="45.5550300" lon="8.8478250">
        <ele>186.1080000</ele>
        <time>2009-07-19T08:27:12Z</time>
      </trkpt>
      <trkpt lat="45.5551250" lon="8.8477600">
        <ele>187.0750000</ele>
        <time>2009-07-19T08:27:16Z</time>
      </trkpt>
      <trkpt lat="45.5551600" lon="8.8476940">
        <ele>186.7950000</ele>
        <time>2009-07-19T08:27:18Z</time>
      </trkpt>
      <trkpt lat="45.5552200" lon="8.8475850">
        <ele>186.4970000</ele>
        <time>2009-07-19T08:27:21Z</time>
      </trkpt>
      <trkpt lat="45.5553380" lon="8.8475040">
        <ele>186.7390000</ele>
        <time>2009-07-19T08:27:26Z</time>
      </trkpt>
      <trkpt lat="45.5553540" lon="8.8473820">
        <ele>186.1750000</ele>
        <time>2009-07-19T08:27:29Z</time>
      </trkpt>
      <trkpt lat="45.5553340" lon="8.8472910">
        <ele>186.2440000</ele>
        <time>2009-07-19T08:27:31Z</time>
      </trkpt>
      <trkpt lat="45.5553900" lon="8.8471780">
        <ele>186.3610000</ele>
        <time>2009-07-19T08:27:34Z</time>
      </trkpt>
      <trkpt lat="45.5554700" lon="8.8470970">
        <ele>186.6000000</ele>
        <time>2009-07-19T08:27:37Z</time>
      </trkpt>
      <trkpt lat="45.5556120" lon="8.8469760">
        <ele>186.6340000</ele>
        <time>2009-07-19T08:27:42Z</time>
      </trkpt>
      <trkpt lat="45.5557210" lon="8.8469080">
        <ele>186.5840000</ele>
        <time>2009-07-19T08:27:46Z</time>
      </trkpt>
      <trkpt lat="45.5558480" lon="8.8468690">
        <ele>186.7950000</ele>
        <time>2009-07-19T08:27:50Z</time>
      </trkpt>
      <trkpt lat="45.5559420" lon="8.8469800">
        <ele>186.7980000</ele>
        <time>2009-07-19T08:27:55Z</time>
      </trkpt>
      <trkpt lat="45.5560090" lon="8.8470510">
        <ele>186.9510000</ele>
        <time>2009-07-19T08:27:58Z</time>
      </trkpt>
      <trkpt lat="45.5561250" lon="8.8470660">
        <ele>186.9800000</ele>
        <time>2009-07-19T08:28:01Z</time>
      </trkpt>
      <trkpt lat="45.5562440" lon="8.8469810">
        <ele>187.0100000</ele>
        <time>2009-07-19T08:28:05Z</time>
      </trkpt>
      <trkpt lat="45.5563100" lon="8.8469850">
        <ele>187.4970000</ele>
        <time>2009-07-19T08:28:07Z</time>
      </trkpt>
      <trkpt lat="45.5564250" lon="8.8470940">
        <ele>187.1270000</ele>
        <time>2009-07-19T08:28:12Z</time>
      </trkpt>
      <trkpt lat="45.5565800" lon="8.8474790">
        <ele>186.9440000</ele>
        <time>2009-07-19T08:28:19Z</time>
      </trkpt>
      <trkpt lat="45.5566530" lon="8.8476520">
        <ele>187.0610000</ele>
        <time>2009-07-19T08:28:22Z</time>
      </trkpt>
      <trkpt lat="45.5567850" lon="8.8477210">
        <ele>186.8750000</ele>
        <time>2009-07-19T08:28:26Z</time>
      </trkpt>
      <trkpt lat="45.5568570" lon="8.8476470">
        <ele>187.0680000</ele>
        <time>2009-07-19T08:28:28Z</time>
      </trkpt>
      <trkpt lat="45.5571420" lon="8.8473900">
        <ele>187.1710000</ele>
        <time>2009-07-19T08:28:35Z</time>
      </trkpt>
      <trkpt lat="45.5574300" lon="8.8471160">
        <ele>187.3780000</ele>
        <time>2009-07-19T08:28:42Z</time>
      </trkpt>
      <trkpt lat="45.5578980" lon="8.8466990">
        <ele>187.7460000</ele>
        <time>2009-07-19T08:28:53Z</time>
      </trkpt>
      <trkpt lat="45.5583410" lon="8.8463250">
        <ele>187.8330000</ele>
        <time>2009-07-19T08:29:03Z</time>
      </trkpt>
      <trkpt lat="45.5587250" lon="8.8460780">
        <ele>188.0800000</ele>
        <time>2009-07-19T08:29:11Z</time>
      </trkpt>
      <trkpt lat="45.5591700" lon="8.8458200">
        <ele>187.9760000</ele>
        <time>2009-07-19T08:29:19Z</time>
      </trkpt>
      <trkpt lat="45.5597000" lon="8.8455090">
        <ele>188.1840000</ele>
        <time>2009-07-19T08:29:29Z</time>
      </trkpt>
      <trkpt lat="45.5598460" lon="8.8454280">
        <ele>188.0120000</ele>
        <time>2009-07-19T08:29:32Z</time>
      </trkpt>
      <trkpt lat="45.5600210" lon="8.8454730">
        <ele>188.3230000</ele>
        <time>2009-07-19T08:29:36Z</time>
      </trkpt>
      <trkpt lat="45.5601980" lon="8.8456870">
        <ele>188.3400000</ele>
        <time>2009-07-19T08:29:41Z</time>
      </trkpt>
      <trkpt lat="45.5603260" lon="8.8456280">
        <ele>188.2460000</ele>
        <time>2009-07-19T08:29:44Z</time>
      </trkpt>
      <trkpt lat="45.5604790" lon="8.8454340">
        <ele>188.5740000</ele>
        <time>2009-07-19T08:29:48Z</time>
      </trkpt>
      <trkpt lat="45.5605300" lon="8.8452450">
        <ele>188.3750000</ele>
        <time>2009-07-19T08:29:51Z</time>
      </trkpt>
      <trkpt lat="45.5606010" lon="8.8448850">
        <ele>188.4680000</ele>
        <time>2009-07-19T08:29:56Z</time>
      </trkpt>
      <trkpt lat="45.5607910" lon="8.8448060">
        <ele>188.6300000</ele>
        <time>2009-07-19T08:30:00Z</time>
      </trkpt>
      <trkpt lat="45.5609520" lon="8.8449190">
        <ele>188.7960000</ele>
        <time>2009-07-19T08:30:03Z</time>
      </trkpt>
      <trkpt lat="45.5611950" lon="8.8449370">
        <ele>188.7430000</ele>
        <time>2009-07-19T08:30:08Z</time>
      </trkpt>
      <trkpt lat="45.5614290" lon="8.8447470">
        <ele>188.9360000</ele>
        <time>2009-07-19T08:30:13Z</time>
      </trkpt>
      <trkpt lat="45.5616320" lon="8.8447090">
        <ele>189.0760000</ele>
        <time>2009-07-19T08:30:17Z</time>
      </trkpt>
      <trkpt lat="45.5617300" lon="8.8448430">
        <ele>189.3040000</ele>
        <time>2009-07-19T08:30:20Z</time>
      </trkpt>
      <trkpt lat="45.5617600" lon="8.8449020">
        <ele>189.2050000</ele>
        <time>2009-07-19T08:30:21Z</time>
      </trkpt>
      <trkpt lat="45.5618780" lon="8.8450730">
        <ele>189.2650000</ele>
        <time>2009-07-19T08:30:24Z</time>
      </trkpt>
      <trkpt lat="45.5621340" lon="8.8452250">
        <ele>189.7380000</ele>
        <time>2009-07-19T08:30:29Z</time>
      </trkpt>
      <trkpt lat="45.5623250" lon="8.8454280">
        <ele>189.5440000</ele>
        <time>2009-07-19T08:30:33Z</time>
      </trkpt>
      <trkpt lat="45.5626820" lon="8.8458300">
        <ele>189.9000000</ele>
        <time>2009-07-19T08:30:40Z</time>
      </trkpt>
      <trkpt lat="45.5628680" lon="8.8460460">
        <ele>190.1950000</ele>
        <time>2009-07-19T08:30:44Z</time>
      </trkpt>
      <trkpt lat="45.5629920" lon="8.8462940">
        <ele>190.4110000</ele>
        <time>2009-07-19T08:30:48Z</time>
      </trkpt>
      <trkpt lat="45.5630910" lon="8.8466700">
        <ele>190.2590000</ele>
        <time>2009-07-19T08:30:53Z</time>
      </trkpt>
      <trkpt lat="45.5631360" lon="8.8468050">
        <ele>190.4030000</ele>
        <time>2009-07-19T08:30:55Z</time>
      </trkpt>
      <trkpt lat="45.5632370" lon="8.8468800">
        <ele>190.8160000</ele>
        <time>2009-07-19T08:30:58Z</time>
      </trkpt>
      <trkpt lat="45.5632710" lon="8.8468550">
        <ele>190.6330000</ele>
        <time>2009-07-19T08:30:59Z</time>
      </trkpt>
      <trkpt lat="45.5635790" lon="8.8466320">
        <ele>190.6620000</ele>
        <time>2009-07-19T08:31:06Z</time>
      </trkpt>
      <trkpt lat="45.5640060" lon="8.8463430">
        <ele>191.1400000</ele>
        <time>2009-07-19T08:31:14Z</time>
      </trkpt>
      <trkpt lat="45.5643190" lon="8.8461360">
        <ele>191.1250000</ele>
        <time>2009-07-19T08:31:20Z</time>
      </trkpt>
      <trkpt lat="45.5644160" lon="8.8459680">
        <ele>191.5310000</ele>
        <time>2009-07-19T08:31:24Z</time>
      </trkpt>
      <trkpt lat="45.5644210" lon="8.8459240">
        <ele>191.3440000</ele>
        <time>2009-07-19T08:31:25Z</time>
      </trkpt>
      <trkpt lat="45.5645000" lon="8.8456820">
        <ele>191.9920000</ele>
        <time>2009-07-19T08:31:31Z</time>
      </trkpt>
      <trkpt lat="45.5645960" lon="8.8456050">
        <ele>191.8930000</ele>
        <time>2009-07-19T08:31:35Z</time>
      </trkpt>
      <trkpt lat="45.5647490" lon="8.8455990">
        <ele>191.2530000</ele>
        <time>2009-07-19T08:31:40Z</time>
      </trkpt>
      <trkpt lat="45.5648420" lon="8.8455200">
        <ele>191.7140000</ele>
        <time>2009-07-19T08:31:45Z</time>
      </trkpt>
      <trkpt lat="45.5648610" lon="8.8454380">
        <ele>191.5900000</ele>
        <time>2009-07-19T08:31:50Z</time>
      </trkpt>
      <trkpt lat="45.5648410" lon="8.8453540">
        <ele>191.2980000</ele>
        <time>2009-07-19T08:31:53Z</time>
      </trkpt>
      <trkpt lat="45.5648340" lon="8.8452510">
        <ele>191.2490000</ele>
        <time>2009-07-19T08:31:56Z</time>
      </trkpt>
      <trkpt lat="45.5648460" lon="8.8451020">
        <ele>191.1980000</ele>
        <time>2009-07-19T08:32:00Z</time>
      </trkpt>
      <trkpt lat="45.5648170" lon="8.8449750">
        <ele>191.1400000</ele>
        <time>2009-07-19T08:32:03Z</time>
      </trkpt>
      <trkpt lat="45.5647230" lon="8.8448020">
        <ele>190.9680000</ele>
        <time>2009-07-19T08:32:07Z</time>
      </trkpt>
      <trkpt lat="45.5645510" lon="8.8447020">
        <ele>191.2120000</ele>
        <time>2009-07-19T08:32:13Z</time>
      </trkpt>
      <trkpt lat="45.5645270" lon="8.8446090">
        <ele>191.0130000</ele>
        <time>2009-07-19T08:32:16Z</time>
      </trkpt>
      <trkpt lat="45.5645510" lon="8.8444390">
        <ele>190.8150000</ele>
        <time>2009-07-19T08:32:20Z</time>
      </trkpt>
      <trkpt lat="45.5645580" lon="8.8443910">
        <ele>190.7420000</ele>
        <time>2009-07-19T08:32:21Z</time>
      </trkpt>
      <trkpt lat="45.5646240" lon="8.8441520">
        <ele>190.8980000</ele>
        <time>2009-07-19T08:32:27Z</time>
      </trkpt>
      <trkpt lat="45.5645480" lon="8.8440990">
        <ele>190.7240000</ele>
        <time>2009-07-19T08:32:31Z</time>
      </trkpt>
      <trkpt lat="45.5644910" lon="8.8440040">
        <ele>190.5760000</ele>
        <time>2009-07-19T08:32:34Z</time>
      </trkpt>
      <trkpt lat="45.5644750" lon="8.8439690">
        <ele>190.5520000</ele>
        <time>2009-07-19T08:32:35Z</time>
      </trkpt>
      <trkpt lat="45.5644720" lon="8.8438010">
        <ele>190.8470000</ele>
        <time>2009-07-19T08:32:41Z</time>
      </trkpt>
      <trkpt lat="45.5645140" lon="8.8437120">
        <ele>190.8350000</ele>
        <time>2009-07-19T08:32:45Z</time>
      </trkpt>
      <trkpt lat="45.5645050" lon="8.8434750">
        <ele>190.5610000</ele>
        <time>2009-07-19T08:32:50Z</time>
      </trkpt>
      <trkpt lat="45.5644950" lon="8.8433360">
        <ele>190.6930000</ele>
        <time>2009-07-19T08:32:52Z</time>
      </trkpt>
      <trkpt lat="45.5644380" lon="8.8428630">
        <ele>190.5820000</ele>
        <time>2009-07-19T08:32:58Z</time>
      </trkpt>
      <trkpt lat="45.5644250" lon="8.8426790">
        <ele>190.5510000</ele>
        <time>2009-07-19T08:33:01Z</time>
      </trkpt>
      <trkpt lat="45.5644780" lon="8.8424830">
        <ele>190.7330000</ele>
        <time>2009-07-19T08:33:05Z</time>
      </trkpt>
      <trkpt lat="45.5644370" lon="8.8422740">
        <ele>190.4000000</ele>
        <time>2009-07-19T08:33:10Z</time>
      </trkpt>
      <trkpt lat="45.5643620" lon="8.8421060">
        <ele>190.0710000</ele>
        <time>2009-07-19T08:33:14Z</time>
      </trkpt>
      <trkpt lat="45.5642690" lon="8.8417820">
        <ele>190.3560000</ele>
        <time>2009-07-19T08:33:19Z</time>
      </trkpt>
      <trkpt lat="45.5640690" lon="8.8413570">
        <ele>190.2360000</ele>
        <time>2009-07-19T08:33:25Z</time>
      </trkpt>
      <trkpt lat="45.5638990" lon="8.8409430">
        <ele>190.0850000</ele>
        <time>2009-07-19T08:33:31Z</time>
      </trkpt>
      <trkpt lat="45.5638590" lon="8.8408110">
        <ele>190.1180000</ele>
        <time>2009-07-19T08:33:33Z</time>
      </trkpt>
      <trkpt lat="45.5637670" lon="8.8406000">
        <ele>189.8540000</ele>
        <time>2009-07-19T08:33:36Z</time>
      </trkpt>
      <trkpt lat="45.5636130" lon="8.8404360">
        <ele>189.9660000</ele>
        <time>2009-07-19T08:33:40Z</time>
      </trkpt>
      <trkpt lat="45.5635800" lon="8.8404560">
        <ele>189.8410000</ele>
        <time>2009-07-19T08:33:41Z</time>
      </trkpt>
      <trkpt lat="45.5633940" lon="8.8406040">
        <ele>189.7400000</ele>
        <time>2009-07-19T08:33:45Z</time>
      </trkpt>
      <trkpt lat="45.5630940" lon="8.8408380">
        <ele>189.6320000</ele>
        <time>2009-07-19T08:33:51Z</time>
      </trkpt>
      <trkpt lat="45.5627800" lon="8.8411010">
        <ele>189.3480000</ele>
        <time>2009-07-19T08:33:57Z</time>
      </trkpt>
      <trkpt lat="45.5624880" lon="8.8413890">
        <ele>189.5600000</ele>
        <time>2009-07-19T08:34:03Z</time>
      </trkpt>
      <trkpt lat="45.5622670" lon="8.8416510">
        <ele>189.1380000</ele>
        <time>2009-07-19T08:34:08Z</time>
      </trkpt>
      <trkpt lat="45.5620110" lon="8.8418830">
        <ele>189.0130000</ele>
        <time>2009-07-19T08:34:13Z</time>
      </trkpt>
      <trkpt lat="45.5617250" lon="8.8421570">
        <ele>188.9490000</ele>
        <time>2009-07-19T08:34:19Z</time>
      </trkpt>
      <trkpt lat="45.5615780" lon="8.8421500">
        <ele>188.6420000</ele>
        <time>2009-07-19T08:34:23Z</time>
      </trkpt>
      <trkpt lat="45.5615180" lon="8.8420000">
        <ele>188.6060000</ele>
        <time>2009-07-19T08:34:26Z</time>
      </trkpt>
      <trkpt lat="45.5614980" lon="8.8419320">
        <ele>188.2750000</ele>
        <time>2009-07-19T08:34:27Z</time>
      </trkpt>
      <trkpt lat="45.5612440" lon="8.8414730">
        <ele>188.3220000</ele>
        <time>2009-07-19T08:34:34Z</time>
      </trkpt>
      <trkpt lat="45.5610710" lon="8.8411310">
        <ele>188.1670000</ele>
        <time>2009-07-19T08:34:39Z</time>
      </trkpt>
      <trkpt lat="45.5610370" lon="8.8410570">
        <ele>188.0280000</ele>
        <time>2009-07-19T08:34:40Z</time>
      </trkpt>
      <trkpt lat="45.5609110" lon="8.8406880">
        <ele>188.2150000</ele>
        <time>2009-07-19T08:34:45Z</time>
      </trkpt>
      <trkpt lat="45.5608330" lon="8.8404550">
        <ele>188.0580000</ele>
        <time>2009-07-19T08:34:48Z</time>
      </trkpt>
      <trkpt lat="45.5606880" lon="8.8400170">
        <ele>188.4520000</ele>
        <time>2009-07-19T08:34:52Z</time>
      </trkpt>
      <trkpt lat="45.5606590" lon="8.8399100">
        <ele>188.3300000</ele>
        <time>2009-07-19T08:34:53Z</time>
      </trkpt>
      <trkpt lat="45.5606420" lon="8.8396470">
        <ele>188.2570000</ele>
        <time>2009-07-19T08:34:56Z</time>
      </trkpt>
      <trkpt lat="45.5606410" lon="8.8394330">
        <ele>188.1170000</ele>
        <time>2009-07-19T08:35:00Z</time>
      </trkpt>
      <trkpt lat="45.5605090" lon="8.8393930">
        <ele>187.8660000</ele>
        <time>2009-07-19T08:35:05Z</time>
      </trkpt>
      <trkpt lat="45.5603740" lon="8.8394030">
        <ele>187.7750000</ele>
        <time>2009-07-19T08:35:08Z</time>
      </trkpt>
      <trkpt lat="45.5602670" lon="8.8394540">
        <ele>187.7670000</ele>
        <time>2009-07-19T08:35:10Z</time>
      </trkpt>
      <trkpt lat="45.5600420" lon="8.8396260">
        <ele>187.4910000</ele>
        <time>2009-07-19T08:35:15Z</time>
      </trkpt>
      <trkpt lat="45.5598160" lon="8.8398080">
        <ele>187.2950000</ele>
        <time>2009-07-19T08:35:19Z</time>
      </trkpt>
      <trkpt lat="45.5597510" lon="8.8398530">
        <ele>187.0770000</ele>
        <time>2009-07-19T08:35:20Z</time>
      </trkpt>
      <trkpt lat="45.5593970" lon="8.8400450">
        <ele>186.7750000</ele>
        <time>2009-07-19T08:35:26Z</time>
      </trkpt>
      <trkpt lat="45.5592450" lon="8.8402000">
        <ele>186.7090000</ele>
        <time>2009-07-19T08:35:30Z</time>
      </trkpt>
      <trkpt lat="45.5591040" lon="8.8402540">
        <ele>186.4940000</ele>
        <time>2009-07-19T08:35:34Z</time>
      </trkpt>
      <trkpt lat="45.5590640" lon="8.8401480">
        <ele>186.5690000</ele>
        <time>2009-07-19T08:35:38Z</time>
      </trkpt>
      <trkpt lat="45.5591020" lon="8.8399860">
        <ele>186.6260000</ele>
        <time>2009-07-19T08:35:42Z</time>
      </trkpt>
      <trkpt lat="45.5591000" lon="8.8399320">
        <ele>186.3840000</ele>
        <time>2009-07-19T08:35:43Z</time>
      </trkpt>
      <trkpt lat="45.5590550" lon="8.8396670">
        <ele>186.3740000</ele>
        <time>2009-07-19T08:35:48Z</time>
      </trkpt>
      <trkpt lat="45.5590360" lon="8.8394700">
        <ele>186.4500000</ele>
        <time>2009-07-19T08:35:52Z</time>
      </trkpt>
      <trkpt lat="45.5590610" lon="8.8393570">
        <ele>186.6400000</ele>
        <time>2009-07-19T08:35:55Z</time>
      </trkpt>
      <trkpt lat="45.5589590" lon="8.8392280">
        <ele>186.4340000</ele>
        <time>2009-07-19T08:36:00Z</time>
      </trkpt>
      <trkpt lat="45.5588160" lon="8.8390880">
        <ele>185.9910000</ele>
        <time>2009-07-19T08:36:04Z</time>
      </trkpt>
      <trkpt lat="45.5586510" lon="8.8389460">
        <ele>185.8250000</ele>
        <time>2009-07-19T08:36:08Z</time>
      </trkpt>
      <trkpt lat="45.5584980" lon="8.8388400">
        <ele>185.7620000</ele>
        <time>2009-07-19T08:36:12Z</time>
      </trkpt>
      <trkpt lat="45.5584020" lon="8.8387560">
        <ele>185.6370000</ele>
        <time>2009-07-19T08:36:15Z</time>
      </trkpt>
      <trkpt lat="45.5584100" lon="8.8386360">
        <ele>185.7450000</ele>
        <time>2009-07-19T08:36:19Z</time>
      </trkpt>
      <trkpt lat="45.5585190" lon="8.8383860">
        <ele>185.8090000</ele>
        <time>2009-07-19T08:36:23Z</time>
      </trkpt>
      <trkpt lat="45.5586090" lon="8.8380820">
        <ele>185.8260000</ele>
        <time>2009-07-19T08:36:27Z</time>
      </trkpt>
      <trkpt lat="45.5587540" lon="8.8375420">
        <ele>185.9750000</ele>
        <time>2009-07-19T08:36:34Z</time>
      </trkpt>
      <trkpt lat="45.5589180" lon="8.8373100">
        <ele>186.0340000</ele>
        <time>2009-07-19T08:36:39Z</time>
      </trkpt>
      <trkpt lat="45.5589310" lon="8.8371560">
        <ele>186.0480000</ele>
        <time>2009-07-19T08:36:42Z</time>
      </trkpt>
      <trkpt lat="45.5588850" lon="8.8369380">
        <ele>185.8770000</ele>
        <time>2009-07-19T08:36:45Z</time>
      </trkpt>
      <trkpt lat="45.5588080" lon="8.8362050">
        <ele>186.0790000</ele>
        <time>2009-07-19T08:36:54Z</time>
      </trkpt>
      <trkpt lat="45.5587160" lon="8.8358370">
        <ele>185.8210000</ele>
        <time>2009-07-19T08:36:59Z</time>
      </trkpt>
      <trkpt lat="45.5584380" lon="8.8353420">
        <ele>186.0490000</ele>
        <time>2009-07-19T08:37:07Z</time>
      </trkpt>
      <trkpt lat="45.5581070" lon="8.8347890">
        <ele>185.4060000</ele>
        <time>2009-07-19T08:37:16Z</time>
      </trkpt>
      <trkpt lat="45.5579490" lon="8.8344700">
        <ele>184.9170000</ele>
        <time>2009-07-19T08:37:21Z</time>
      </trkpt>
      <trkpt lat="45.5579280" lon="8.8343970">
        <ele>184.9050000</ele>
        <time>2009-07-19T08:37:22Z</time>
      </trkpt>
      <trkpt lat="45.5578280" lon="8.8340190">
        <ele>184.7900000</ele>
        <time>2009-07-19T08:37:27Z</time>
      </trkpt>
      <trkpt lat="45.5578030" lon="8.8338810">
        <ele>184.6390000</ele>
        <time>2009-07-19T08:37:29Z</time>
      </trkpt>
      <trkpt lat="45.5577570" lon="8.8337380">
        <ele>184.7930000</ele>
        <time>2009-07-19T08:37:31Z</time>
      </trkpt>
      <trkpt lat="45.5576290" lon="8.8335560">
        <ele>184.6720000</ele>
        <time>2009-07-19T08:37:35Z</time>
      </trkpt>
      <trkpt lat="45.5574200" lon="8.8334080">
        <ele>184.5700000</ele>
        <time>2009-07-19T08:37:40Z</time>
      </trkpt>
      <trkpt lat="45.5572610" lon="8.8332390">
        <ele>184.3130000</ele>
        <time>2009-07-19T08:37:45Z</time>
      </trkpt>
      <trkpt lat="45.5572460" lon="8.8331990">
        <ele>184.3600000</ele>
        <time>2009-07-19T08:37:46Z</time>
      </trkpt>
      <trkpt lat="45.5571550" lon="8.8330050">
        <ele>184.2280000</ele>
        <time>2009-07-19T08:37:51Z</time>
      </trkpt>
      <trkpt lat="45.5571370" lon="8.8329660">
        <ele>184.0740000</ele>
        <time>2009-07-19T08:37:52Z</time>
      </trkpt>
      <trkpt lat="45.5571660" lon="8.8328530">
        <ele>184.1570000</ele>
        <time>2009-07-19T08:37:57Z</time>
      </trkpt>
      <trkpt lat="45.5571730" lon="8.8328090">
        <ele>184.1060000</ele>
        <time>2009-07-19T08:37:58Z</time>
      </trkpt>
      <trkpt lat="45.5572570" lon="8.8327160">
        <ele>184.1650000</ele>
        <time>2009-07-19T08:38:03Z</time>
      </trkpt>
      <trkpt lat="45.5572860" lon="8.8326270">
        <ele>184.2810000</ele>
        <time>2009-07-19T08:38:06Z</time>
      </trkpt>
      <trkpt lat="45.5573620" lon="8.8326240">
        <ele>184.1780000</ele>
        <time>2009-07-19T08:38:09Z</time>
      </trkpt>
      <trkpt lat="45.5573920" lon="8.8326520">
        <ele>184.4570000</ele>
        <time>2009-07-19T08:38:10Z</time>
      </trkpt>
      <trkpt lat="45.5576310" lon="8.8328090">
        <ele>184.4980000</ele>
        <time>2009-07-19T08:38:17Z</time>
      </trkpt>
      <trkpt lat="45.5578100" lon="8.8328670">
        <ele>184.7000000</ele>
        <time>2009-07-19T08:38:21Z</time>
      </trkpt>
      <trkpt lat="45.5579000" lon="8.8329120">
        <ele>184.4230000</ele>
        <time>2009-07-19T08:38:23Z</time>
      </trkpt>
      <trkpt lat="45.5582000" lon="8.8329590">
        <ele>184.4100000</ele>
        <time>2009-07-19T08:38:29Z</time>
      </trkpt>
      <trkpt lat="45.5583950" lon="8.8328790">
        <ele>184.7130000</ele>
        <time>2009-07-19T08:38:33Z</time>
      </trkpt>
      <trkpt lat="45.5587100" lon="8.8326350">
        <ele>184.6510000</ele>
        <time>2009-07-19T08:38:40Z</time>
      </trkpt>
      <trkpt lat="45.5590210" lon="8.8323820">
        <ele>184.5390000</ele>
        <time>2009-07-19T08:38:47Z</time>
      </trkpt>
      <trkpt lat="45.5592350" lon="8.8322730">
        <ele>185.4600000</ele>
        <time>2009-07-19T08:38:53Z</time>
      </trkpt>
      <trkpt lat="45.5592580" lon="8.8322690">
        <ele>185.3420000</ele>
        <time>2009-07-19T08:38:54Z</time>
      </trkpt>
      <trkpt lat="45.5592620" lon="8.8321600">
        <ele>183.2630000</ele>
        <time>2009-07-19T08:38:58Z</time>
      </trkpt>
      <trkpt lat="45.5590840" lon="8.8321320">
        <ele>179.8250000</ele>
        <time>2009-07-19T08:39:01Z</time>
      </trkpt>
      <trkpt lat="45.5590010" lon="8.8321500">
        <ele>178.7520000</ele>
        <time>2009-07-19T08:39:02Z</time>
      </trkpt>
      <trkpt lat="45.5588350" lon="8.8322120">
        <ele>177.5100000</ele>
        <time>2009-07-19T08:39:04Z</time>
      </trkpt>
      <trkpt lat="45.5586070" lon="8.8323540">
        <ele>176.0010000</ele>
        <time>2009-07-19T08:39:07Z</time>
      </trkpt>
      <trkpt lat="45.5584030" lon="8.8325170">
        <ele>175.3380000</ele>
        <time>2009-07-19T08:39:10Z</time>
      </trkpt>
      <trkpt lat="45.5581050" lon="8.8325670">
        <ele>174.4000000</ele>
        <time>2009-07-19T08:39:14Z</time>
      </trkpt>
      <trkpt lat="45.5579530" lon="8.8325240">
        <ele>173.7090000</ele>
        <time>2009-07-19T08:39:16Z</time>
      </trkpt>
      <trkpt lat="45.5576620" lon="8.8322600">
        <ele>172.1600000</ele>
        <time>2009-07-19T08:39:21Z</time>
      </trkpt>
      <trkpt lat="45.5576760" lon="8.8319920">
        <ele>171.0130000</ele>
        <time>2009-07-19T08:39:24Z</time>
      </trkpt>
      <trkpt lat="45.5577350" lon="8.8317860">
        <ele>169.1710000</ele>
        <time>2009-07-19T08:39:26Z</time>
      </trkpt>
      <trkpt lat="45.5579120" lon="8.8310660">
        <ele>168.2230000</ele>
        <time>2009-07-19T08:39:33Z</time>
      </trkpt>
      <trkpt lat="45.5580450" lon="8.8305830">
        <ele>165.6360000</ele>
        <time>2009-07-19T08:39:38Z</time>
      </trkpt>
      <trkpt lat="45.5581860" lon="8.8302630">
        <ele>163.8290000</ele>
        <time>2009-07-19T08:39:41Z</time>
      </trkpt>
      <trkpt lat="45.5584680" lon="8.8295880">
        <ele>162.8180000</ele>
        <time>2009-07-19T08:39:48Z</time>
      </trkpt>
      <trkpt lat="45.5584910" lon="8.8292950">
        <ele>162.1590000</ele>
        <time>2009-07-19T08:39:52Z</time>
      </trkpt>
      <trkpt lat="45.5583770" lon="8.8292270">
        <ele>162.1160000</ele>
        <time>2009-07-19T08:39:55Z</time>
      </trkpt>
      <trkpt lat="45.5583340" lon="8.8292290">
        <ele>162.3730000</ele>
        <time>2009-07-19T08:39:56Z</time>
      </trkpt>
      <trkpt lat="45.5580240" lon="8.8292470">
        <ele>165.5040000</ele>
        <time>2009-07-19T08:40:04Z</time>
      </trkpt>
      <trkpt lat="45.5579940" lon="8.8292470">
        <ele>165.6560000</ele>
        <time>2009-07-19T08:40:05Z</time>
      </trkpt>
      <trkpt lat="45.5578830" lon="8.8292570">
        <ele>167.2190000</ele>
        <time>2009-07-19T08:40:09Z</time>
      </trkpt>
      <trkpt lat="45.5577200" lon="8.8293340">
        <ele>168.5070000</ele>
        <time>2009-07-19T08:40:16Z</time>
      </trkpt>
      <trkpt lat="45.5576070" lon="8.8294380">
        <ele>169.1390000</ele>
        <time>2009-07-19T08:40:22Z</time>
      </trkpt>
      <trkpt lat="45.5574350" lon="8.8295270">
        <ele>171.1110000</ele>
        <time>2009-07-19T08:40:31Z</time>
      </trkpt>
      <trkpt lat="45.5572470" lon="8.8295230">
        <ele>173.7530000</ele>
        <time>2009-07-19T08:40:41Z</time>
      </trkpt>
      <trkpt lat="45.5571360" lon="8.8295330">
        <ele>175.1570000</ele>
        <time>2009-07-19T08:40:48Z</time>
      </trkpt>
      <trkpt lat="45.5569720" lon="8.8294980">
        <ele>177.8980000</ele>
        <time>2009-07-19T08:40:58Z</time>
      </trkpt>
      <trkpt lat="45.5568450" lon="8.8294710">
        <ele>179.6710000</ele>
        <time>2009-07-19T08:41:06Z</time>
      </trkpt>
      <trkpt lat="45.5566910" lon="8.8294860">
        <ele>179.7660000</ele>
        <time>2009-07-19T08:41:14Z</time>
      </trkpt>
      <trkpt lat="45.5566110" lon="8.8295640">
        <ele>179.6280000</ele>
        <time>2009-07-19T08:41:18Z</time>
      </trkpt>
      <trkpt lat="45.5565420" lon="8.8298620">
        <ele>179.8990000</ele>
        <time>2009-07-19T08:41:25Z</time>
      </trkpt>
      <trkpt lat="45.5565080" lon="8.8301840">
        <ele>180.0030000</ele>
        <time>2009-07-19T08:41:32Z</time>
      </trkpt>
      <trkpt lat="45.5565820" lon="8.8303310">
        <ele>179.9200000</ele>
        <time>2009-07-19T08:41:36Z</time>
      </trkpt>
      <trkpt lat="45.5568000" lon="8.8304190">
        <ele>179.1240000</ele>
        <time>2009-07-19T08:41:42Z</time>
      </trkpt>
      <trkpt lat="45.5568830" lon="8.8304470">
        <ele>178.6620000</ele>
        <time>2009-07-19T08:41:44Z</time>
      </trkpt>
      <trkpt lat="45.5569890" lon="8.8306010">
        <ele>178.5470000</ele>
        <time>2009-07-19T08:41:48Z</time>
      </trkpt>
      <trkpt lat="45.5569980" lon="8.8306900">
        <ele>179.6810000</ele>
        <time>2009-07-19T08:41:54Z</time>
      </trkpt>
      <trkpt lat="45.5570040" lon="8.8307200">
        <ele>180.7530000</ele>
        <time>2009-07-19T08:41:57Z</time>
      </trkpt>
      <trkpt lat="45.5570370" lon="8.8307980">
        <ele>183.0860000</ele>
        <time>2009-07-19T08:42:06Z</time>
      </trkpt>
      <trkpt lat="45.5570610" lon="8.8308260">
        <ele>183.4770000</ele>
        <time>2009-07-19T08:42:09Z</time>
      </trkpt>
      <trkpt lat="45.5571710" lon="8.8308640">
        <ele>183.6660000</ele>
        <time>2009-07-19T08:42:16Z</time>
      </trkpt>
      <trkpt lat="45.5573880" lon="8.8309100">
        <ele>183.6990000</ele>
        <time>2009-07-19T08:42:23Z</time>
      </trkpt>
      <trkpt lat="45.5575950" lon="8.8309750">
        <ele>183.9840000</ele>
        <time>2009-07-19T08:42:29Z</time>
      </trkpt>
      <trkpt lat="45.5576170" lon="8.8311420">
        <ele>183.9770000</ele>
        <time>2009-07-19T08:42:33Z</time>
      </trkpt>
      <trkpt lat="45.5575630" lon="8.8313130">
        <ele>183.8890000</ele>
        <time>2009-07-19T08:42:37Z</time>
      </trkpt>
      <trkpt lat="45.5574700" lon="8.8316670">
        <ele>183.7760000</ele>
        <time>2009-07-19T08:42:44Z</time>
      </trkpt>
      <trkpt lat="45.5573810" lon="8.8320720">
        <ele>184.1250000</ele>
        <time>2009-07-19T08:42:51Z</time>
      </trkpt>
      <trkpt lat="45.5573450" lon="8.8323720">
        <ele>184.0610000</ele>
        <time>2009-07-19T08:42:56Z</time>
      </trkpt>
      <trkpt lat="45.5572270" lon="8.8325580">
        <ele>184.0940000</ele>
        <time>2009-07-19T08:43:01Z</time>
      </trkpt>
      <trkpt lat="45.5571270" lon="8.8325060">
        <ele>184.0510000</ele>
        <time>2009-07-19T08:43:04Z</time>
      </trkpt>
      <trkpt lat="45.5571010" lon="8.8324750">
        <ele>183.9660000</ele>
        <time>2009-07-19T08:43:05Z</time>
      </trkpt>
      <trkpt lat="45.5568720" lon="8.8322920">
        <ele>183.6880000</ele>
        <time>2009-07-19T08:43:11Z</time>
      </trkpt>
      <trkpt lat="45.5566560" lon="8.8321790">
        <ele>183.6850000</ele>
        <time>2009-07-19T08:43:16Z</time>
      </trkpt>
      <trkpt lat="45.5564500" lon="8.8320590">
        <ele>183.4370000</ele>
        <time>2009-07-19T08:43:21Z</time>
      </trkpt>
      <trkpt lat="45.5563100" lon="8.8317750">
        <ele>183.3840000</ele>
        <time>2009-07-19T08:43:25Z</time>
      </trkpt>
      <trkpt lat="45.5562030" lon="8.8315330">
        <ele>183.2980000</ele>
        <time>2009-07-19T08:43:28Z</time>
      </trkpt>
      <trkpt lat="45.5560160" lon="8.8313630">
        <ele>183.1170000</ele>
        <time>2009-07-19T08:43:32Z</time>
      </trkpt>
      <trkpt lat="45.5556290" lon="8.8311440">
        <ele>183.1110000</ele>
        <time>2009-07-19T08:43:39Z</time>
      </trkpt>
      <trkpt lat="45.5555810" lon="8.8311100">
        <ele>182.9630000</ele>
        <time>2009-07-19T08:43:40Z</time>
      </trkpt>
      <trkpt lat="45.5554870" lon="8.8310790">
        <ele>182.9540000</ele>
        <time>2009-07-19T08:43:42Z</time>
      </trkpt>
      <trkpt lat="45.5554340" lon="8.8312750">
        <ele>182.6870000</ele>
        <time>2009-07-19T08:43:46Z</time>
      </trkpt>
      <trkpt lat="45.5554180" lon="8.8314160">
        <ele>182.7170000</ele>
        <time>2009-07-19T08:43:48Z</time>
      </trkpt>
      <trkpt lat="45.5552930" lon="8.8319230">
        <ele>182.7950000</ele>
        <time>2009-07-19T08:43:55Z</time>
      </trkpt>
      <trkpt lat="45.5552240" lon="8.8323860">
        <ele>182.5280000</ele>
        <time>2009-07-19T08:44:01Z</time>
      </trkpt>
      <trkpt lat="45.5551950" lon="8.8326250">
        <ele>182.4050000</ele>
        <time>2009-07-19T08:44:04Z</time>
      </trkpt>
      <trkpt lat="45.5551600" lon="8.8331950">
        <ele>182.9100000</ele>
        <time>2009-07-19T08:44:11Z</time>
      </trkpt>
      <trkpt lat="45.5551290" lon="8.8336070">
        <ele>183.2300000</ele>
        <time>2009-07-19T08:44:16Z</time>
      </trkpt>
      <trkpt lat="45.5551130" lon="8.8340110">
        <ele>183.1000000</ele>
        <time>2009-07-19T08:44:21Z</time>
      </trkpt>
      <trkpt lat="45.5550000" lon="8.8341810">
        <ele>182.8050000</ele>
        <time>2009-07-19T08:44:24Z</time>
      </trkpt>
      <trkpt lat="45.5549520" lon="8.8341910">
        <ele>182.7440000</ele>
        <time>2009-07-19T08:44:25Z</time>
      </trkpt>
      <trkpt lat="45.5545750" lon="8.8343080">
        <ele>182.7460000</ele>
        <time>2009-07-19T08:44:32Z</time>
      </trkpt>
      <trkpt lat="45.5544750" lon="8.8343410">
        <ele>182.5680000</ele>
        <time>2009-07-19T08:44:34Z</time>
      </trkpt>
      <trkpt lat="45.5542560" lon="8.8343240">
        <ele>182.1830000</ele>
        <time>2009-07-19T08:44:38Z</time>
      </trkpt>
      <trkpt lat="45.5541420" lon="8.8343320">
        <ele>182.0750000</ele>
        <time>2009-07-19T08:44:40Z</time>
      </trkpt>
      <trkpt lat="45.5538700" lon="8.8344060">
        <ele>181.7660000</ele>
        <time>2009-07-19T08:44:45Z</time>
      </trkpt>
      <trkpt lat="45.5537120" lon="8.8345910">
        <ele>181.7170000</ele>
        <time>2009-07-19T08:44:49Z</time>
      </trkpt>
      <trkpt lat="45.5537440" lon="8.8347970">
        <ele>181.6260000</ele>
        <time>2009-07-19T08:44:52Z</time>
      </trkpt>
      <trkpt lat="45.5539990" lon="8.8353940">
        <ele>181.9940000</ele>
        <time>2009-07-19T08:45:01Z</time>
      </trkpt>
      <trkpt lat="45.5542050" lon="8.8358250">
        <ele>182.2750000</ele>
        <time>2009-07-19T08:45:08Z</time>
      </trkpt>
      <trkpt lat="45.5543600" lon="8.8361300">
        <ele>182.5260000</ele>
        <time>2009-07-19T08:45:13Z</time>
      </trkpt>
      <trkpt lat="45.5546330" lon="8.8366040">
        <ele>182.8450000</ele>
        <time>2009-07-19T08:45:21Z</time>
      </trkpt>
      <trkpt lat="45.5549810" lon="8.8372070">
        <ele>183.2440000</ele>
        <time>2009-07-19T08:45:31Z</time>
      </trkpt>
      <trkpt lat="45.5552760" lon="8.8377520">
        <ele>183.4290000</ele>
        <time>2009-07-19T08:45:40Z</time>
      </trkpt>
      <trkpt lat="45.5555910" lon="8.8383640">
        <ele>183.6410000</ele>
        <time>2009-07-19T08:45:50Z</time>
      </trkpt>
      <trkpt lat="45.5556200" lon="8.8384240">
        <ele>183.6840000</ele>
        <time>2009-07-19T08:45:51Z</time>
      </trkpt>
      <trkpt lat="45.5558360" lon="8.8388160">
        <ele>183.9820000</ele>
        <time>2009-07-19T08:45:58Z</time>
      </trkpt>
      <trkpt lat="45.5559760" lon="8.8390300">
        <ele>183.9000000</ele>
        <time>2009-07-19T08:46:02Z</time>
      </trkpt>
      <trkpt lat="45.5560960" lon="8.8391200">
        <ele>184.4280000</ele>
        <time>2009-07-19T08:46:05Z</time>
      </trkpt>
      <trkpt lat="45.5562570" lon="8.8392050">
        <ele>184.1530000</ele>
        <time>2009-07-19T08:46:09Z</time>
      </trkpt>
      <trkpt lat="45.5564100" lon="8.8393370">
        <ele>184.4170000</ele>
        <time>2009-07-19T08:46:13Z</time>
      </trkpt>
      <trkpt lat="45.5565690" lon="8.8395640">
        <ele>184.6320000</ele>
        <time>2009-07-19T08:46:17Z</time>
      </trkpt>
      <trkpt lat="45.5567340" lon="8.8398640">
        <ele>184.8360000</ele>
        <time>2009-07-19T08:46:22Z</time>
      </trkpt>
      <trkpt lat="45.5569490" lon="8.8402830">
        <ele>184.6950000</ele>
        <time>2009-07-19T08:46:29Z</time>
      </trkpt>
      <trkpt lat="45.5571700" lon="8.8405600">
        <ele>184.8140000</ele>
        <time>2009-07-19T08:46:35Z</time>
      </trkpt>
      <trkpt lat="45.5574230" lon="8.8408590">
        <ele>185.0120000</ele>
        <time>2009-07-19T08:46:42Z</time>
      </trkpt>
      <trkpt lat="45.5577290" lon="8.8410960">
        <ele>185.0250000</ele>
        <time>2009-07-19T08:46:49Z</time>
      </trkpt>
      <trkpt lat="45.5578270" lon="8.8411480">
        <ele>185.0230000</ele>
        <time>2009-07-19T08:46:51Z</time>
      </trkpt>
      <trkpt lat="45.5581610" lon="8.8414300">
        <ele>185.3350000</ele>
        <time>2009-07-19T08:46:59Z</time>
      </trkpt>
      <trkpt lat="45.5581810" lon="8.8415050">
        <ele>185.4990000</ele>
        <time>2009-07-19T08:47:01Z</time>
      </trkpt>
      <trkpt lat="45.5580390" lon="8.8415730">
        <ele>185.7230000</ele>
        <time>2009-07-19T08:47:05Z</time>
      </trkpt>
      <trkpt lat="45.5579970" lon="8.8415990">
        <ele>185.6500000</ele>
        <time>2009-07-19T08:47:06Z</time>
      </trkpt>
      <trkpt lat="45.5577960" lon="8.8417530">
        <ele>185.3890000</ele>
        <time>2009-07-19T08:47:11Z</time>
      </trkpt>
      <trkpt lat="45.5577190" lon="8.8418140">
        <ele>185.3750000</ele>
        <time>2009-07-19T08:47:13Z</time>
      </trkpt>
      <trkpt lat="45.5575150" lon="8.8421150">
        <ele>185.0820000</ele>
        <time>2009-07-19T08:47:19Z</time>
      </trkpt>
      <trkpt lat="45.5573650" lon="8.8423930">
        <ele>185.3120000</ele>
        <time>2009-07-19T08:47:24Z</time>
      </trkpt>
      <trkpt lat="45.5573020" lon="8.8425450">
        <ele>185.2430000</ele>
        <time>2009-07-19T08:47:28Z</time>
      </trkpt>
      <trkpt lat="45.5572560" lon="8.8425660">
        <ele>185.4620000</ele>
        <time>2009-07-19T08:47:30Z</time>
      </trkpt>
      <trkpt lat="45.5570600" lon="8.8427360">
        <ele>185.2520000</ele>
        <time>2009-07-19T08:47:35Z</time>
      </trkpt>
      <trkpt lat="45.5568100" lon="8.8430370">
        <ele>185.1510000</ele>
        <time>2009-07-19T08:47:42Z</time>
      </trkpt>
      <trkpt lat="45.5566730" lon="8.8432180">
        <ele>185.9820000</ele>
        <time>2009-07-19T08:47:47Z</time>
      </trkpt>
      <trkpt lat="45.5566660" lon="8.8432530">
        <ele>186.4620000</ele>
        <time>2009-07-19T08:47:48Z</time>
      </trkpt>
      <trkpt lat="45.5564950" lon="8.8434300">
        <ele>185.1730000</ele>
        <time>2009-07-19T08:47:53Z</time>
      </trkpt>
      <trkpt lat="45.5564590" lon="8.8434760">
        <ele>185.0610000</ele>
        <time>2009-07-19T08:47:54Z</time>
      </trkpt>
      <trkpt lat="45.5561280" lon="8.8439480">
        <ele>185.0190000</ele>
        <time>2009-07-19T08:48:03Z</time>
      </trkpt>
      <trkpt lat="45.5559510" lon="8.8441110">
        <ele>185.0440000</ele>
        <time>2009-07-19T08:48:07Z</time>
      </trkpt>
      <trkpt lat="45.5557820" lon="8.8442690">
        <ele>184.8470000</ele>
        <time>2009-07-19T08:48:11Z</time>
      </trkpt>
      <trkpt lat="45.5556790" lon="8.8444620">
        <ele>185.0880000</ele>
        <time>2009-07-19T08:48:16Z</time>
      </trkpt>
      <trkpt lat="45.5555930" lon="8.8445270">
        <ele>185.0470000</ele>
        <time>2009-07-19T08:48:20Z</time>
      </trkpt>
      <trkpt lat="45.5555330" lon="8.8446010">
        <ele>184.7450000</ele>
        <time>2009-07-19T08:48:23Z</time>
      </trkpt>
      <trkpt lat="45.5555100" lon="8.8448050">
        <ele>184.9760000</ele>
        <time>2009-07-19T08:48:28Z</time>
      </trkpt>
      <trkpt lat="45.5555990" lon="8.8449750">
        <ele>185.3840000</ele>
        <time>2009-07-19T08:48:34Z</time>
      </trkpt>
      <trkpt lat="45.5556400" lon="8.8451190">
        <ele>185.0000000</ele>
        <time>2009-07-19T08:48:38Z</time>
      </trkpt>
      <trkpt lat="45.5556460" lon="8.8451610">
        <ele>184.7070000</ele>
        <time>2009-07-19T08:48:39Z</time>
      </trkpt>
      <trkpt lat="45.5557150" lon="8.8453050">
        <ele>184.8450000</ele>
        <time>2009-07-19T08:48:43Z</time>
      </trkpt>
      <trkpt lat="45.5557970" lon="8.8454640">
        <ele>184.8860000</ele>
        <time>2009-07-19T08:48:47Z</time>
      </trkpt>
      <trkpt lat="45.5558160" lon="8.8455070">
        <ele>184.9540000</ele>
        <time>2009-07-19T08:48:48Z</time>
      </trkpt>
      <trkpt lat="45.5559380" lon="8.8458140">
        <ele>184.9910000</ele>
        <time>2009-07-19T08:48:55Z</time>
      </trkpt>
      <trkpt lat="45.5560080" lon="8.8459660">
        <ele>185.0950000</ele>
        <time>2009-07-19T08:48:59Z</time>
      </trkpt>
      <trkpt lat="45.5560260" lon="8.8460030">
        <ele>185.0570000</ele>
        <time>2009-07-19T08:49:00Z</time>
      </trkpt>
      <trkpt lat="45.5560260" lon="8.8461790">
        <ele>185.2110000</ele>
        <time>2009-07-19T08:49:05Z</time>
      </trkpt>
      <trkpt lat="45.5559760" lon="8.8462570">
        <ele>185.2520000</ele>
        <time>2009-07-19T08:49:08Z</time>
      </trkpt>
      <trkpt lat="45.5559460" lon="8.8462760">
        <ele>185.0990000</ele>
        <time>2009-07-19T08:49:09Z</time>
      </trkpt>
      <trkpt lat="45.5558090" lon="8.8463920">
        <ele>185.3020000</ele>
        <time>2009-07-19T08:49:13Z</time>
      </trkpt>
      <trkpt lat="45.5555120" lon="8.8466810">
        <ele>184.8400000</ele>
        <time>2009-07-19T08:49:20Z</time>
      </trkpt>
      <trkpt lat="45.5553780" lon="8.8468160">
        <ele>184.5860000</ele>
        <time>2009-07-19T08:49:23Z</time>
      </trkpt>
      <trkpt lat="45.5550740" lon="8.8470960">
        <ele>184.1090000</ele>
        <time>2009-07-19T08:49:30Z</time>
      </trkpt>
      <trkpt lat="45.5550360" lon="8.8471290">
        <ele>184.4570000</ele>
        <time>2009-07-19T08:49:31Z</time>
      </trkpt>
      <trkpt lat="45.5548690" lon="8.8470480">
        <ele>184.5650000</ele>
        <time>2009-07-19T08:49:35Z</time>
      </trkpt>
      <trkpt lat="45.5548430" lon="8.8468770">
        <ele>184.6060000</ele>
        <time>2009-07-19T08:49:38Z</time>
      </trkpt>
      <trkpt lat="45.5547430" lon="8.8467760">
        <ele>184.2440000</ele>
        <time>2009-07-19T08:49:41Z</time>
      </trkpt>
      <trkpt lat="45.5547070" lon="8.8467570">
        <ele>184.1380000</ele>
        <time>2009-07-19T08:49:42Z</time>
      </trkpt>
      <trkpt lat="45.5546450" lon="8.8467190">
        <ele>184.3190000</ele>
        <time>2009-07-19T08:49:44Z</time>
      </trkpt>
      <trkpt lat="45.5546290" lon="8.8465700">
        <ele>184.1600000</ele>
        <time>2009-07-19T08:49:48Z</time>
      </trkpt>
      <trkpt lat="45.5545820" lon="8.8464150">
        <ele>184.4840000</ele>
        <time>2009-07-19T08:49:52Z</time>
      </trkpt>
      <trkpt lat="45.5545050" lon="8.8463260">
        <ele>184.1600000</ele>
        <time>2009-07-19T08:49:56Z</time>
      </trkpt>
      <trkpt lat="45.5543880" lon="8.8462860">
        <ele>184.1500000</ele>
        <time>2009-07-19T08:49:59Z</time>
      </trkpt>
      <trkpt lat="45.5543640" lon="8.8462830">
        <ele>195.9920000</ele>
        <time>2009-07-19T08:50:00Z</time>
      </trkpt>
      <trkpt lat="45.5543690" lon="8.8462830">
        <ele>187.5350000</ele>
        <time>2009-07-19T08:50:01Z</time>
      </trkpt>
      <trkpt lat="45.5543850" lon="8.8462710">
        <ele>184.7990000</ele>
        <time>2009-07-19T08:50:03Z</time>
      </trkpt>
      <trkpt lat="45.5543890" lon="8.8462710">
        <ele>203.0960000</ele>
        <time>2009-07-19T08:50:04Z</time>
      </trkpt>
      <trkpt lat="45.5543890" lon="8.8462710">
        <ele>186.6380000</ele>
        <time>2009-07-19T08:50:05Z</time>
      </trkpt>
      <trkpt lat="45.5543880" lon="8.8462710">
        <ele>184.5370000</ele>
        <time>2009-07-19T08:50:06Z</time>
      </trkpt>
      <trkpt lat="45.5543710" lon="8.8462670">
        <ele>184.3290000</ele>
        <time>2009-07-19T08:50:08Z</time>
      </trkpt>
      <trkpt lat="45.5542970" lon="8.8464250">
        <ele>183.9750000</ele>
        <time>2009-07-19T08:50:15Z</time>
      </trkpt>
      <trkpt lat="45.5541960" lon="8.8465730">
        <ele>183.8950000</ele>
        <time>2009-07-19T08:50:19Z</time>
      </trkpt>
      <trkpt lat="45.5541440" lon="8.8466540">
        <ele>183.9720000</ele>
        <time>2009-07-19T08:50:21Z</time>
      </trkpt>
      <trkpt lat="45.5539930" lon="8.8467430">
        <ele>183.6680000</ele>
        <time>2009-07-19T08:50:26Z</time>
      </trkpt>
      <trkpt lat="45.5539310" lon="8.8467600">
        <ele>183.7420000</ele>
        <time>2009-07-19T08:50:28Z</time>
      </trkpt>
      <trkpt lat="45.5538740" lon="8.8469190">
        <ele>183.8380000</ele>
        <time>2009-07-19T08:50:33Z</time>
      </trkpt>
      <trkpt lat="45.5539010" lon="8.8470890">
        <ele>183.9470000</ele>
        <time>2009-07-19T08:50:36Z</time>
      </trkpt>
      <trkpt lat="45.5538580" lon="8.8471900">
        <ele>183.8150000</ele>
        <time>2009-07-19T08:50:38Z</time>
      </trkpt>
      <trkpt lat="45.5536880" lon="8.8474630">
        <ele>183.2020000</ele>
        <time>2009-07-19T08:50:43Z</time>
      </trkpt>
      <trkpt lat="45.5534630" lon="8.8478820">
        <ele>182.8850000</ele>
        <time>2009-07-19T08:50:50Z</time>
      </trkpt>
      <trkpt lat="45.5532170" lon="8.8481840">
        <ele>182.8300000</ele>
        <time>2009-07-19T08:50:56Z</time>
      </trkpt>
      <trkpt lat="45.5529570" lon="8.8485240">
        <ele>182.5180000</ele>
        <time>2009-07-19T08:51:03Z</time>
      </trkpt>
      <trkpt lat="45.5525330" lon="8.8490810">
        <ele>182.3260000</ele>
        <time>2009-07-19T08:51:14Z</time>
      </trkpt>
      <trkpt lat="45.5524750" lon="8.8493130">
        <ele>182.4580000</ele>
        <time>2009-07-19T08:51:18Z</time>
      </trkpt>
      <trkpt lat="45.5524850" lon="8.8493760">
        <ele>182.4190000</ele>
        <time>2009-07-19T08:51:19Z</time>
      </trkpt>
      <trkpt lat="45.5525890" lon="8.8498730">
        <ele>182.6770000</ele>
        <time>2009-07-19T08:51:26Z</time>
      </trkpt>
      <trkpt lat="45.5526630" lon="8.8500710">
        <ele>182.9470000</ele>
        <time>2009-07-19T08:51:29Z</time>
      </trkpt>
      <trkpt lat="45.5526280" lon="8.8503070">
        <ele>182.6260000</ele>
        <time>2009-07-19T08:51:33Z</time>
      </trkpt>
      <trkpt lat="45.5523480" lon="8.8507400">
        <ele>182.6500000</ele>
        <time>2009-07-19T08:51:41Z</time>
      </trkpt>
      <trkpt lat="45.5519800" lon="8.8512320">
        <ele>182.4720000</ele>
        <time>2009-07-19T08:51:50Z</time>
      </trkpt>
      <trkpt lat="45.5518160" lon="8.8514420">
        <ele>182.5840000</ele>
        <time>2009-07-19T08:51:54Z</time>
      </trkpt>
      <trkpt lat="45.5517390" lon="8.8517120">
        <ele>182.7560000</ele>
        <time>2009-07-19T08:51:58Z</time>
      </trkpt>
      <trkpt lat="45.5517550" lon="8.8517830">
        <ele>182.7090000</ele>
        <time>2009-07-19T08:51:59Z</time>
      </trkpt>
      <trkpt lat="45.5519670" lon="8.8523960">
        <ele>183.3770000</ele>
        <time>2009-07-19T08:52:07Z</time>
      </trkpt>
      <trkpt lat="45.5521810" lon="8.8531030">
        <ele>183.3860000</ele>
        <time>2009-07-19T08:52:15Z</time>
      </trkpt>
      <trkpt lat="45.5523470" lon="8.8537550">
        <ele>182.8940000</ele>
        <time>2009-07-19T08:52:22Z</time>
      </trkpt>
      <trkpt lat="45.5525020" lon="8.8544280">
        <ele>182.3870000</ele>
        <time>2009-07-19T08:52:29Z</time>
      </trkpt>
      <trkpt lat="45.5526080" lon="8.8546390">
        <ele>182.4970000</ele>
        <time>2009-07-19T08:52:32Z</time>
      </trkpt>
      <trkpt lat="45.5528280" lon="8.8545830">
        <ele>182.5180000</ele>
        <time>2009-07-19T08:52:35Z</time>
      </trkpt>
      <trkpt lat="45.5532840" lon="8.8544810">
        <ele>183.3410000</ele>
        <time>2009-07-19T08:52:41Z</time>
      </trkpt>
      <trkpt lat="45.5534020" lon="8.8545050">
        <ele>183.3380000</ele>
        <time>2009-07-19T08:52:44Z</time>
      </trkpt>
      <trkpt lat="45.5534170" lon="8.8545030">
        <ele>183.4540000</ele>
        <time>2009-07-19T08:52:48Z</time>
      </trkpt>
      <trkpt lat="45.5534120" lon="8.8545070">
        <ele>183.2980000</ele>
        <time>2009-07-19T08:52:49Z</time>
      </trkpt>
    </trkseg>
  </trk>

</gpx>
